DL9MFL-6 Weather Reports


time (UTC)temp
F
wind
direction
speed
knots
gust
knots
rain 1hr
in
rain 24hr
in
rain mn
in
humidity
%
barometer
mb
20260905022840 67 322 1.7 2.6 0.00 0.00 0.00 71 1016.5
20260905022620 68 330 1.7 4.3 0.00 0.00 0.00 71 1016.4
20260905022614 67 322 0.9 2.6 0.00 0.00 0.00 71 1016.4
20260905022610 67 325 1.7 2.6 0.00 0.00 0.00 71 1016.5
20260905022606 67 325 1.7 2.6 0.00 0.00 0.00 71 1016.4
20260905022345 67 330 1.7 3.5 0.00 0.00 0.00 71 1016.4
20260905022341 68 330 1.7 3.5 0.00 0.00 0.00 71 1016.4
20260905022101 68 330 1.7 4.3 0.00 0.00 0.00 71 1016.4
20260905022001 68 330 1.7 4.3 0.00 0.00 0.00 71 1016.4
20260905021901 68 330 1.7 4.3 0.00 0.00 0.00 71 1016.3
20260905021855 68 330 1.7 4.3 0.00 0.00 0.00 71 1016.4
20260905021844 68 330 1.7 4.3 0.00 0.00 0.00 71 1016.3
20260905021840 67 330 1.7 4.3 0.00 0.00 0.00 71 1016.4
20260905021601 67 330 2.6 4.3 0.00 0.00 0.00 71 1016.3
20260905021501 68 330 2.6 4.3 0.00 0.00 0.00 71 1016.4
20260905021401 67 330 2.6 4.3 0.00 0.00 0.00 71 1016.4
20260905021301 67 330 1.7 4.3 0.00 0.00 0.00 71 1016.4
20260905021201 67 329 1.7 4.3 0.00 0.00 0.00 71 1016.4
20260905021101 67 328 1.7 4.3 0.00 0.00 0.00 71 1016.4
20260905021001 67 321 1.7 4.3 0.00 0.00 0.00 71 1016.4
20260905020901 67 325 1.7 4.3 0.00 0.00 0.00 71 1016.5
20260905020801 67 325 1.7 4.3 0.00 0.00 0.00 71 1016.5
20260905020701 67 320 1.7 4.3 0.00 0.00 0.00 71 1016.5
20260905020628 67 320 1.7 4.3 0.00 0.00 0.00 71 1016.5
20260905020601 67 312 1.7 3.5 0.00 0.00 0.00 71 1016.5
20260905020501 67 312 1.7 3.5 0.00 0.00 0.00 71 1016.5
20260905020400 67 311 1.7 3.5 0.00 0.00 0.00 71 1016.5
20260905020301 67 311 0.9 3.5 0.00 0.00 0.00 71 1016.5
20260905020201 68 311 0.9 3.5 0.00 0.00 0.00 71 1016.5
20260905020100 68 300 0.9 2.6 0.00 0.00 0.00 71 1016.5
20260905020000 68 288 0.9 2.6 0.00 0.00 0.00 71 1016.5
20260905015900 68 289 0.9 2.6 0.00 0.00 0.00 71 1016.5
20260905015800 68 288 0.9 1.7 0.00 0.00 0.00 71 1016.5
20260905015701 68 288 0.9 1.7 0.00 0.00 0.00 71 1016.4
20260905015628 68 288 0.9 1.7 0.00 0.00 0.00 71 1016.4
20260905015620 68 288 0.9 1.7 0.00 0.00 0.00 70 1016.4
20260905015614 68 288 0.9 1.7 0.00 0.00 0.00 71 1016.5
20260905015610 68 288 0.9 1.7 0.00 0.00 0.00 70 1016.4
20260905015606 68 288 0.9 1.7 0.00 0.00 0.00 70 1016.4
20260905015345 68 288 0.9 1.7 0.00 0.00 0.00 70 1016.3
20260905015341 68 288 0.9 1.7 0.00 0.00 0.00 70 1016.4
20260905015101 68 288 0.9 1.7 0.00 0.00 0.00 70 1016.3
20260905015001 68 288 0.9 1.7 0.00 0.00 0.00 70 1016.3
20260905014900 68 288 0.9 1.7 0.00 0.00 0.00 70 1016.3
20260905014800 68 288 0.9 1.7 0.00 0.00 0.00 70 1016.3
20260905014700 68 288 0.9 1.7 0.00 0.00 0.00 70 1016.4
20260905014629 68 288 0.9 1.7 0.00 0.00 0.00 70 1016.4
20260905014600 68 288 0.9 1.7 0.00 0.00 0.00 70 1016.3
20260905014500 68 288 0.9 1.7 0.00 0.00 0.00 70 1016.3
20260905014401 68 288 0.9 1.7 0.00 0.00 0.00 70 1016.3
20260905014300 68 288 0.9 1.7 0.00 0.00 0.00 70 1016.3
20260905014201 68 288 0.9 1.7 0.00 0.00 0.00 70 1016.2
20260905014101 68 288 0.9 1.7 0.00 0.00 0.00 70 1016.2
20260905014001 68 288 0.9 1.7 0.00 0.00 0.00 70 1016.2
20260905013901 68 288 0.9 1.7 0.00 0.00 0.00 69 1016.2
20260905013801 68 288 0.9 1.7 0.00 0.00 0.00 69 1016.2
20260905013701 68 288 0.9 1.7 0.00 0.00 0.00 70 1016.2
20260905013601 68 288 0.9 1.7 0.00 0.00 0.00 70 1016.2
20260905013501 68 288 0.9 1.7 0.00 0.00 0.00 70 1016.2
20260905013356 68 288 0.9 1.7 0.00 0.00 0.00 70 1016.1
20260905013255 68 288 0.9 1.7 0.00 0.00 0.00 70 1016.1
20260905013154 68 288 0.9 1.7 0.00 0.00 0.00 70 1016.1
20260905013129 68 288 0.9 1.7 0.00 0.00 0.00 69 1016.1
20260905013052 68 288 0.9 1.7 0.00 0.00 0.00 69 1016.1
20260905012952 68 288 0.9 1.7 0.00 0.00 0.00 69 1016.1
20260905012849 68 288 0.9 1.7 0.00 0.00 0.00 69 1016.1
20260905012748 68 288 0.9 1.7 0.00 0.00 0.00 69 1016.1
20260905012629 68 288 0.9 1.7 0.00 0.00 0.00 69 1016.1
20260905012548 68 288 0.9 1.7 0.00 0.00 0.00 69 1016.2
20260905012445 68 288 0.9 1.7 0.00 0.00 0.00 69 1016.1
20260905012353 68 288 0.9 1.7 0.00 0.00 0.00 69 1016.2
20260905012344 68 288 0.9 1.7 0.00 0.00 0.00 69 1016.2
20260905012340 68 288 0.9 1.7 0.00 0.00 0.00 69 1016.1
20260905012036 69 288 0.9 1.7 0.00 0.00 0.00 69 1016.1
20260905011937 69 288 0.9 1.7 0.00 0.00 0.00 69 1016.1
20260905011833 69 288 0.9 1.7 0.00 0.00 0.00 69 1016.2
20260905011732 69 288 0.9 1.7 0.00 0.00 0.00 69 1016.1
20260905011629 69 288 0.9 1.7 0.00 0.00 0.00 69 1016.2
20260905011533 69 288 0.9 1.7 0.00 0.00 0.00 69 1016.2
20260905011433 69 288 0.9 1.7 0.00 0.00 0.00 69 1016.2
20260905011333 69 288 0.9 1.7 0.00 0.00 0.00 69 1016.2
20260905011233 69 288 0.9 1.7 0.00 0.00 0.00 68 1016.2
20260905011128 69 288 0.9 1.7 0.00 0.00 0.00 69 1016.2
20260905011032 69 288 0.9 1.7 0.00 0.00 0.00 69 1016.2
20260905010932 69 288 0.9 1.7 0.00 0.00 0.00 68 1016.3
20260905010832 69 288 0.9 2.6 0.00 0.00 0.00 69 1016.2
20260905010733 69 288 0.9 2.6 0.00 0.00 0.00 68 1016.2
20260905010628 69 288 0.9 3.5 0.00 0.00 0.00 68 1016.2
20260905010532 69 288 0.9 3.5 0.00 0.00 0.00 68 1016.3
20260905010433 69 288 1.7 3.5 0.00 0.00 0.00 68 1016.3
20260905010353 69 288 1.7 3.5 0.00 0.00 0.00 68 1016.3
20260905010344 69 288 1.7 3.5 0.00 0.00 0.00 68 1016.2
20260905010340 69 288 1.7 3.5 0.00 0.00 0.00 68 1016.2
20260905010029 69 288 1.7 3.5 0.00 0.00 0.00 68 1016.2
20260905005929 69 288 1.7 3.5 0.00 0.00 0.00 68 1016.2
20260905005828 69 288 1.7 3.5 0.00 0.00 0.00 68 1016.2
20260905005728 69 288 1.7 3.5 0.00 0.00 0.00 68 1016.2
20260905005629 69 286 1.7 2.6 0.00 0.00 0.00 68 1016.2
20260905005528 69 287 1.7 2.6 0.00 0.00 0.00 68 1016.1
20260905005428 69 246 0.9 2.6 0.00 0.00 0.00 68 1016.1
20260905005329 69 246 0.9 2.6 0.00 0.00 0.00 68 1016.1
20260905005228 69 246 0.9 2.6 0.00 0.00 0.00 69 1016.1
20260905005129 69 265 0.9 2.6 0.00 0.00 0.00 68 1016.1
20260905005029 69 265 0.9 2.6 0.00 0.00 0.00 68 1016.1
20260905004929 69 265 0.9 2.6 0.00 0.00 0.00 68 1016.1
20260905004829 69 265 0.9 2.6 0.00 0.00 0.00 68 1016.1
20260905004729 69 266 0.0 1.7 0.00 0.00 0.00 68 1016.2
20260905004629 69 266 0.0 1.7 0.00 0.00 0.00 68 1016.1
20260905004529 69 266 0.0 1.7 0.00 0.00 0.00 68 1016.1
20260905004428 69 266 0.0 1.7 0.00 0.00 0.00 67 1016.1
20260905004329 69 267 0.0 0.9 0.00 0.00 0.00 67 1016.1
20260905004228 69 267 0.0 0.9 0.00 0.00 0.00 67 1016.1
20260905004128 69 267 0.0 0.9 0.00 0.00 0.00 68 1016.1
20260905004028 69 267 0.0 1.7 0.00 0.00 0.00 67 1016.1
20260905003928 69 267 0.0 1.7 0.00 0.00 0.00 67 1016.1
20260905003828 69 267 0.9 1.7 0.00 0.00 0.00 67 1016.0
20260905003728 69 267 0.9 1.7 0.00 0.00 0.00 67 1016.0
20260905003628 70 267 0.9 1.7 0.00 0.00 0.00 67 1016.0
20260905003528 70 267 0.9 1.7 0.00 0.00 0.00 67 1016.1
20260905003428 70 267 0.9 1.7 0.00 0.00 0.00 67 1016.1
20260905003329 70 267 0.9 1.7 0.00 0.00 0.00 66 1016.1
20260905003228 70 267 0.9 1.7 0.00 0.00 0.00 67 1016.1
20260905003129 70 267 0.9 1.7 0.00 0.00 0.00 66 1016.1
20260905003029 70 267 0.9 1.7 0.00 0.00 0.00 67 1016.1
20260905002929 70 267 0.9 2.6 0.00 0.00 0.00 67 1016.0
20260905002829 70 267 0.9 3.5 0.00 0.00 0.00 66 1016.0
20260905002729 70 267 0.9 3.5 0.00 0.00 0.00 66 1016.0
20260905002628 70 267 0.9 3.5 0.00 0.00 0.00 66 1016.0
20260905002528 70 267 1.7 3.5 0.00 0.00 0.00 66 1016.0
20260905002429 70 267 1.7 3.5 0.00 0.00 0.00 66 1016.0
20260905002328 70 267 1.7 3.5 0.00 0.00 0.00 65 1016.0
20260905002229 70 267 1.7 5.2 0.00 0.00 0.00 65 1016.0
20260905002128 70 267 2.6 5.2 0.00 0.00 0.00 65 1016.0
20260905002028 70 267 2.6 6.1 0.00 0.00 0.00 65 1016.0
20260905001928 70 267 2.6 6.1 0.00 0.00 0.00 65 1016.1
20260905001828 71 267 2.6 6.1 0.00 0.00 0.00 65 1016.0
20260905001733 71 291 2.6 6.1 0.00 0.00 0.00 65 1016.1
20260905001629 71 292 2.6 6.1 0.00 0.00 0.00 65 1016.1
20260905001528 71 295 3.5 6.1 0.00 0.00 0.00 65 1016.1
20260905001428 71 295 3.5 6.1 0.00 0.00 0.00 65 1016.1
20260905001328 71 287 3.5 6.1 0.00 0.00 0.00 64 1016.1
20260905001228 71 299 3.5 6.1 0.00 0.00 0.00 65 1016.1
20260905001128 71 293 3.5 8.7 0.00 0.00 0.00 64 1016.1
20260905001028 71 281 3.5 8.7 0.00 0.00 0.00 64 1016.1
20260905000929 71 300 4.3 10.4 0.00 0.00 0.00 64 1016.1
20260905000829 71 325 4.3 10.4 0.00 0.00 0.00 64 1016.1
20260905000729 71 306 4.3 10.4 0.00 0.00 0.00 63 1016.1
20260905000629 71 291 5.2 10.4 0.00 0.00 0.00 63 1016.2
20260905000529 71 304 5.2 10.4 0.00 0.00 0.00 63 1016.1
20260905000429 71 292 5.2 10.4 0.00 0.00 0.00 63 1016.1
20260905000352 71 293 5.2 10.4 0.00 0.00 0.00 63 1016.1
20260905000348 71 323 5.2 10.4 0.00 0.00 0.00 63 1016.1
20260905000340 72 331 5.2 10.4 0.00 0.00 0.00 63 1016.1
20260905000028 72 304 5.2 10.4 0.00 0.00 0.00 62 1016.1
20260904235929 72 344 4.3 9.6 0.00 0.00 0.00 62 1016.0
20260904235829 72 346 4.3 8.7 0.00 0.00 0.00 62 1016.1
20260904235729 72 311 4.3 8.7 0.00 0.00 0.00 62 1016.0
20260904235629 72 318 4.3 8.7 0.00 0.00 0.00 61 1016.0
20260904235529 72 304 4.3 8.7 0.00 0.00 0.00 61 1016.0
20260904235429 72 281 4.3 8.7 0.00 0.00 0.00 61 1016.0
20260904235328 73 317 4.3 8.7 0.00 0.00 0.00 61 1015.8
20260904235228 73 310 4.3 8.7 0.00 0.00 0.00 61 1015.8
20260904235128 73 319 4.3 8.7 0.00 0.00 0.00 61 1015.8
20260904235028 73 316 4.3 8.7 0.00 0.00 0.00 61 1015.8
20260904234928 73 298 4.3 8.7 0.00 0.00 0.00 60 1015.7
20260904234830 73 287 4.3 8.7 0.00 0.00 0.00 60 1015.7
20260904234728 73 293 4.3 8.7 0.00 0.00 0.00 60 1015.6
20260904234628 73 286 4.3 8.7 0.00 0.00 0.00 60 1015.6
20260904234528 73 259 4.3 8.7 0.00 0.00 0.00 60 1015.6
20260904234428 73 275 5.2 10.4 0.00 0.00 0.00 60 1015.5
20260904234328 73 226 5.2 10.4 0.00 0.00 0.00 60 1015.5
20260904234229 73 258 5.2 10.4 0.00 0.00 0.00 60 1015.5
20260904234128 73 235 5.2 10.4 0.00 0.00 0.00 60 1015.5
20260904234028 73 259 5.2 10.4 0.00 0.00 0.00 60 1015.4
20260904233928 73 214 5.2 10.4 0.00 0.00 0.00 60 1015.5
20260904233828 73 238 5.2 10.4 0.00 0.00 0.00 60 1015.4
20260904233729 73 276 5.2 10.4 0.00 0.00 0.00 60 1015.4
20260904233628 73 258 5.2 10.4 0.00 0.00 0.00 60 1015.4
20260904233528 73 229 5.2 10.4 0.00 0.00 0.00 60 1015.4
20260904233428 73 220 5.2 9.6 0.00 0.00 0.00 60 1015.4
20260904233328 73 237 4.3 9.6 0.00 0.00 0.00 60 1015.4
20260904233229 73 245 4.3 8.7 0.00 0.00 0.00 60 1015.4
20260904233130 73 231 4.3 8.7 0.00 0.00 0.00 60 1015.3
20260904233030 73 219 4.3 8.7 0.00 0.00 0.00 60 1015.4
20260904232929 73 246 5.2 8.7 0.00 0.00 0.00 60 1015.4
20260904232828 73 214 5.2 8.7 0.00 0.00 0.00 60 1015.4
20260904232729 73 231 4.3 8.7 0.00 0.00 0.00 60 1015.4
20260904232629 73 239 4.3 9.6 0.00 0.00 0.00 60 1015.4
20260904232529 73 207 4.3 9.6 0.00 0.00 0.00 60 1015.4
20260904232429 73 222 4.3 9.6 0.00 0.00 0.00 60 1015.4
20260904232329 73 258 4.3 9.6 0.00 0.00 0.00 60 1015.4
20260904232229 73 229 4.3 9.6 0.00 0.00 0.00 60 1015.4
20260904232131 73 255 4.3 9.6 0.00 0.00 0.00 60 1015.4
20260904232127 73 259 4.3 9.6 0.00 0.00 0.00 60 1015.4
20260904232024 73 273 4.3 9.6 0.00 0.00 0.00 59 1015.3
20260904231918 73 234 4.3 9.6 0.00 0.00 0.00 59 1015.4
20260904231818 73 190 4.3 9.6 0.00 0.00 0.00 59 1015.4
20260904231718 73 234 4.3 9.6 0.00 0.00 0.00 59 1015.4
20260904231629 73 273 4.3 8.7 0.00 0.00 0.00 59 1015.4
20260904231618 73 216 4.3 8.7 0.00 0.00 0.00 59 1015.3
20260904231517 73 231 4.3 8.7 0.00 0.00 0.00 59 1015.4
20260904231414 73 259 4.3 8.7 0.00 0.00 0.00 59 1015.4
20260904231314 73 236 4.3 8.7 0.00 0.00 0.00 59 1015.4
20260904231214 73 223 4.3 8.7 0.00 0.00 0.00 59 1015.4
20260904231128 73 211 4.3 8.7 0.00 0.00 0.00 59 1015.4
20260904231114 73 230 4.3 8.7 0.00 0.00 0.00 59 1015.3
20260904231012 73 246 4.3 8.7 0.00 0.00 0.00 59 1015.4
20260904230907 73 242 4.3 8.7 0.00 0.00 0.00 59 1015.3
20260904230807 73 252 4.3 9.6 0.00 0.00 0.00 59 1015.4
20260904230707 73 213 4.3 9.6 0.00 0.00 0.00 59 1015.3
20260904230629 73 261 4.3 9.6 0.00 0.00 0.00 59 1015.3
20260904230607 73 239 4.3 9.6 0.00 0.00 0.00 59 1015.3
20260904230505 73 220 4.3 9.6 0.00 0.00 0.00 59 1015.4
20260904230402 73 225 4.3 9.6 0.00 0.00 0.00 59 1015.3
20260904230301 73 230 4.3 9.6 0.00 0.00 0.00 59 1015.3
20260904230201 73 215 4.3 9.6 0.00 0.00 0.00 59 1015.4
20260904230130 73 227 4.3 9.6 0.00 0.00 0.00 59 1015.4
20260904230101 73 213 4.3 9.6 0.00 0.00 0.00 59 1015.4
20260904230001 73 215 4.3 9.6 0.00 0.00 0.00 59 1015.4
20260904225901 73 206 4.3 9.6 0.00 0.00 0.00 59 1015.4
20260904225801 73 242 4.3 9.6 0.00 0.00 0.00 59 1015.4
20260904225701 73 241 4.3 9.6 0.00 0.00 0.00 59 1015.4
20260904225601 73 235 4.3 9.6 0.00 0.00 0.00 59 1015.4
20260904225501 73 214 4.3 9.6 0.00 0.00 0.00 59 1015.3
20260904225401 73 224 4.3 9.6 0.00 0.00 0.00 58 1015.4
20260904225354 73 217 4.3 10.4 0.00 0.00 0.00 59 1015.4
20260904225348 73 246 4.3 10.4 0.00 0.00 0.00 59 1015.4
20260904225344 73 249 4.3 10.4 0.00 0.00 0.00 59 1015.4
20260904225100 73 231 4.3 10.4 0.00 0.00 0.00 59 1015.4
20260904225001 73 241 4.3 10.4 0.00 0.00 0.00 59 1015.4
20260904224901 73 258 5.2 10.4 0.00 0.00 0.00 59 1015.4
20260904224801 73 234 5.2 10.4 0.00 0.00 0.00 58 1015.3
20260904224701 73 231 5.2 10.4 0.00 0.00 0.00 58 1015.3
20260904224629 73 264 5.2 10.4 0.00 0.00 0.00 58 1015.3
20260904224601 73 233 5.2 10.4 0.00 0.00 0.00 58 1015.3
20260904224501 73 219 5.2 10.4 0.00 0.00 0.00 58 1015.3
20260904224401 73 242 5.2 10.4 0.00 0.00 0.00 59 1015.4
20260904224300 73 242 5.2 9.6 0.00 0.00 0.00 59 1015.4
20260904224200 73 213 4.3 9.6 0.00 0.00 0.00 59 1015.3
20260904224129 73 245 4.3 9.6 0.00 0.00 0.00 59 1015.3
20260904224100 73 202 4.3 9.6 0.00 0.00 0.00 59 1015.3
20260904224000 73 208 4.3 9.6 0.00 0.00 0.00 58 1015.4
20260904223900 73 254 4.3 9.6 0.00 0.00 0.00 58 1015.3
20260904223800 73 238 4.3 9.6 0.00 0.00 0.00 59 1015.4
20260904223700 73 219 4.3 9.6 0.00 0.00 0.00 58 1015.4
20260904223628 73 230 4.3 9.6 0.00 0.00 0.00 58 1015.4
20260904223600 73 261 3.5 9.6 0.00 0.00 0.00 58 1015.4
20260904223500 73 244 3.5 9.6 0.00 0.00 0.00 58 1015.4
20260904223401 73 243 3.5 9.6 0.00 0.00 0.00 58 1015.4
20260904223302 73 236 3.5 9.6 0.00 0.00 0.00 58 1015.4
20260904223202 73 250 3.5 9.6 0.00 0.00 0.00 58 1015.3
20260904223129 73 273 3.5 9.6 0.00 0.00 0.00 58 1015.3
20260904223101 73 210 3.5 9.6 0.00 0.00 0.00 59 1015.4
20260904223001 73 229 3.5 9.6 0.00 0.00 0.00 58 1015.4
20260904222901 73 229 3.5 7.8 0.00 0.00 0.00 59 1015.4
20260904222801 73 202 3.5 7.8 0.00 0.00 0.00 58 1015.4
20260904222701 73 252 3.5 7.8 0.00 0.00 0.00 58 1015.4
20260904222628 74 252 3.5 7.8 0.00 0.00 0.00 58 1015.4
20260904222605 74 252 3.5 7.8 0.00 0.00 0.00 58 1015.3
20260904222501 74 217 3.5 7.8 0.00 0.00 0.00 58 1015.4
20260904222401 74 242 3.5 7.8 0.00 0.00 0.00 59 1015.4
20260904222301 74 209 4.3 7.8 0.00 0.00 0.00 58 1015.3
20260904222201 74 264 4.3 7.8 0.00 0.00 0.00 58 1015.3
20260904222128 74 239 4.3 7.8 0.00 0.00 0.00 58 1015.3
20260904222101 74 242 4.3 7.8 0.00 0.00 0.00 58 1015.4
20260904222001 74 225 4.3 7.8 0.00 0.00 0.00 58 1015.4
20260904221901 74 218 4.3 10.4 0.00 0.00 0.00 58 1015.4
20260904221801 74 246 4.3 10.4 0.00 0.00 0.00 58 1015.3
20260904221701 74 236 4.3 10.4 0.00 0.00 0.00 58 1015.3
20260904221629 74 238 4.3 10.4 0.00 0.00 0.00 58 1015.3
20260904221601 74 255 4.3 10.4 0.00 0.00 0.00 58 1015.3
20260904221501 74 210 4.3 10.4 0.00 0.00 0.00 58 1015.3
20260904221401 74 234 5.2 10.4 0.00 0.00 0.00 58 1015.3
20260904221301 74 234 5.2 10.4 0.00 0.00 0.00 58 1015.3
20260904221201 74 231 5.2 10.4 0.00 0.00 0.00 58 1015.3
20260904221129 74 244 5.2 10.4 0.00 0.00 0.00 58 1015.3
20260904221100 74 275 5.2 10.4 0.00 0.00 0.00 58 1015.3
20260904221001 74 232 5.2 10.4 0.00 0.00 0.00 58 1015.3
20260904220901 74 227 5.2 10.4 0.00 0.00 0.00 58 1015.3
20260904220800 74 282 5.2 10.4 0.00 0.00 0.00 58 1015.3
20260904220700 74 211 5.2 10.4 0.00 0.00 0.00 58 1015.3
20260904220629 74 236 5.2 10.4 0.00 0.00 0.00 58 1015.3
20260904220600 74 252 5.2 11.3 0.00 0.00 0.00 58 1015.3
20260904220500 74 238 5.2 11.3 0.00 0.00 0.00 58 1015.2
20260904220401 74 200 4.3 11.3 0.00 0.00 0.00 58 1015.2
20260904220301 74 224 4.3 11.3 0.00 0.00 0.00 58 1015.2
20260904220201 74 232 4.3 11.3 0.00 0.00 0.00 58 1015.2
20260904220129 74 216 4.3 11.3 0.00 0.00 0.00 58 1015.2
20260904220001 74 232 4.3 11.3 0.00 0.00 0.00 58 1015.1
20260904215901 74 215 4.3 11.3 0.00 0.00 0.00 58 1015.1
20260904215802 74 224 4.3 11.3 0.00 0.00 0.00 58 1015.1
20260904215701 74 227 4.3 11.3 0.00 0.00 0.00 58 1015.1
20260904215629 74 238 4.3 11.3 0.00 0.00 0.00 58 1015.1
20260904215601 74 188 4.3 9.6 0.00 0.00 0.00 58 1015.1
20260904215501 74 250 4.3 9.6 0.00 0.00 0.00 58 1015.1
20260904215401 74 244 4.3 9.6 0.00 0.00 0.00 58 1015.1
20260904215305 74 237 3.5 9.6 0.00 0.00 0.00 58 1015.0
20260904215200 74 220 3.5 9.6 0.00 0.00 0.00 58 1015.0
20260904215129 74 221 3.5 9.6 0.00 0.00 0.00 58 1015.0
20260904215101 74 238 3.5 9.6 0.00 0.00 0.00 58 1015.1
20260904215001 74 232 4.3 7.8 0.00 0.00 0.00 58 1015.1
20260904214901 74 246 4.3 7.8 0.00 0.00 0.00 58 1015.0
20260904214801 74 211 4.3 7.8 0.00 0.00 0.00 58 1015.0
20260904214701 74 217 4.3 7.8 0.00 0.00 0.00 58 1015.1
20260904214629 74 227 4.3 7.8 0.00 0.00 0.00 58 1015.1
20260904214624 74 244 4.3 8.7 0.00 0.00 0.00 58 1015.0
20260904214616 74 223 4.3 7.8 0.00 0.00 0.00 58 1015.0
20260904214609 74 225 4.3 7.8 0.00 0.00 0.00 58 1015.0
20260904214604 74 244 4.3 7.8 0.00 0.00 0.00 58 1015.0
20260904214343 74 263 4.3 7.8 0.00 0.00 0.00 58 1015.0
20260904214339 74 278 4.3 8.7 0.00 0.00 0.00 58 1015.0
20260904214101 74 252 4.3 8.7 0.00 0.00 0.00 58 1015.0
20260904214001 74 237 4.3 8.7 0.00 0.00 0.00 58 1015.0
20260904213901 74 251 4.3 8.7 0.00 0.00 0.00 58 1015.1
20260904213801 74 265 4.3 8.7 0.00 0.00 0.00 58 1015.0
20260904213700 74 231 4.3 8.7 0.00 0.00 0.00 58 1015.0
20260904213629 74 243 4.3 8.7 0.00 0.00 0.00 58 1015.0
20260904213600 74 235 4.3 8.7 0.00 0.00 0.00 58 1015.0
20260904213504 74 244 4.3 8.7 0.00 0.00 0.00 58 1015.1
20260904213401 74 236 4.3 8.7 0.00 0.00 0.00 58 1015.0
20260904213301 74 236 3.5 8.7 0.00 0.00 0.00 58 1015.0
20260904213201 74 240 4.3 7.8 0.00 0.00 0.00 58 1015.1
20260904213129 74 238 4.3 7.8 0.00 0.00 0.00 58 1015.1
20260904213101 74 213 3.5 7.8 0.00 0.00 0.00 58 1015.0
20260904213001 74 252 3.5 7.8 0.00 0.00 0.00 58 1015.0
20260904212901 74 247 3.5 7.8 0.00 0.00 0.00 58 1015.0
20260904212801 74 220 4.3 7.8 0.00 0.00 0.00 58 1015.0
20260904212702 74 252 4.3 7.8 0.00 0.00 0.00 58 1015.0
20260904212631 74 215 4.3 7.8 0.00 0.00 0.00 58 1015.0
20260904212601 74 252 4.3 7.8 0.00 0.00 0.00 58 1015.0
20260904212501 74 272 3.5 7.8 0.00 0.00 0.00 58 1015.0
20260904212401 74 227 3.5 7.8 0.00 0.00 0.00 58 1015.0
20260904212356 74 220 3.5 7.8 0.00 0.00 0.00 58 1015.0
20260904212343 74 237 3.5 7.8 0.00 0.00 0.00 58 1015.0
20260904212339 74 253 3.5 7.8 0.00 0.00 0.00 58 1015.0
20260904212101 74 232 3.5 7.8 0.00 0.00 0.00 57 1015.0
20260904212001 74 232 3.5 7.8 0.00 0.00 0.00 57 1015.0
20260904211900 74 288 3.5 7.8 0.00 0.00 0.00 57 1015.0
20260904211856 74 262 3.5 7.0 0.00 0.00 0.00 57 1015.0
20260904211844 74 229 3.5 7.8 0.00 0.00 0.00 57 1015.0
20260904211840 74 227 3.5 7.8 0.00 0.00 0.00 57 1015.0
20260904211601 74 235 3.5 7.0 0.00 0.00 0.00 57 1014.9
20260904211501 74 213 4.3 7.0 0.00 0.00 0.00 57 1014.9
20260904211405 74 206 3.5 7.0 0.00 0.00 0.00 57 1014.9
20260904211347 74 234 4.3 7.0 0.00 0.00 0.00 57 1014.9
20260904211343 74 236 3.5 7.0 0.00 0.00 0.00 57 1014.9
20260904211339 74 234 4.3 7.0 0.00 0.00 0.00 57 1014.9
20260904211101 74 236 3.5 7.0 0.00 0.00 0.00 57 1014.9
20260904211000 74 229 4.3 7.0 0.00 0.00 0.00 57 1014.9
20260904210900 74 238 3.5 7.0 0.00 0.00 0.00 57 1014.9
20260904210800 74 216 4.3 7.8 0.00 0.00 0.00 57 1015.0
20260904210700 74 235 3.5 7.8 0.00 0.00 0.00 57 1014.9
20260904210629 74 258 3.5 7.8 0.00 0.00 0.00 57 1014.9
20260904210601 74 222 4.3 7.8 0.00 0.00 0.00 57 1014.9
20260904210501 74 246 3.5 7.8 0.00 0.00 0.00 57 1015.0
20260904210401 74 242 4.3 7.8 0.00 0.00 0.00 56 1015.0
20260904210301 74 298 4.3 7.8 0.00 0.00 0.00 57 1014.9
20260904210201 74 230 4.3 7.8 0.00 0.00 0.00 57 1015.0
20260904210129 74 209 4.3 7.8 0.00 0.00 0.00 57 1015.0
20260904210101 74 247 4.3 7.8 0.00 0.00 0.00 57 1015.0
20260904210000 74 212 4.3 7.8 0.00 0.00 0.00 57 1015.0
20260904205901 74 263 4.3 7.8 0.00 0.00 0.00 57 1015.0
20260904205801 74 223 4.3 7.8 0.00 0.00 0.00 56 1014.9
20260904205709 74 238 4.3 7.8 0.00 0.00 0.00 56 1015.0
20260904205630 74 217 4.3 8.7 0.00 0.00 0.00 57 1015.0
20260904205601 74 231 4.3 8.7 0.00 0.00 0.00 57 1015.0
20260904205501 74 244 4.3 8.7 0.00 0.00 0.00 56 1015.0
20260904205401 74 229 4.3 8.7 0.00 0.00 0.00 56 1014.9
20260904205301 74 234 4.3 8.7 0.00 0.00 0.00 56 1015.0
20260904205201 74 246 4.3 8.7 0.00 0.00 0.00 56 1014.9
20260904205130 74 244 4.3 8.7 0.00 0.00 0.00 56 1014.9
20260904205101 74 223 4.3 8.7 0.00 0.00 0.00 56 1015.0
20260904205002 74 220 4.3 9.6 0.00 0.00 0.00 57 1015.0
20260904204902 75 223 4.3 9.6 0.00 0.00 0.00 56 1015.0
20260904204801 75 240 4.3 9.6 0.00 0.00 0.00 56 1015.0
20260904204701 75 217 4.3 9.6 0.00 0.00 0.00 56 1015.0
20260904204629 75 275 4.3 9.6 0.00 0.00 0.00 56 1015.0
20260904204623 75 229 5.2 9.6 0.00 0.00 0.00 56 1015.0
20260904204617 75 212 4.3 9.6 0.00 0.00 0.00 56 1015.0
20260904204611 75 217 4.3 9.6 0.00 0.00 0.00 56 1015.0
20260904204606 75 234 4.3 9.6 0.00 0.00 0.00 56 1015.0
20260904204345 75 231 5.2 9.6 0.00 0.00 0.00 56 1015.0
20260904204341 75 225 5.2 9.6 0.00 0.00 0.00 56 1015.0
20260904204100 75 244 5.2 9.6 0.00 0.00 0.00 56 1015.0
20260904204000 75 218 5.2 8.7 0.00 0.00 0.00 56 1015.0
20260904203901 75 216 5.2 8.7 0.00 0.00 0.00 56 1015.0
20260904203800 75 250 5.2 8.7 0.00 0.00 0.00 56 1015.0
20260904203701 75 219 5.2 8.7 0.00 0.00 0.00 56 1015.0
20260904203629 75 245 5.2 8.7 0.00 0.00 0.00 56 1015.0
20260904203601 75 251 5.2 8.7 0.00 0.00 0.00 56 1015.0
20260904203502 75 240 5.2 8.7 0.00 0.00 0.00 56 1015.0
20260904203402 75 236 5.2 8.7 0.00 0.00 0.00 56 1015.0
20260904203358 75 232 4.3 8.7 0.00 0.00 0.00 56 1015.0
20260904203353 75 223 4.3 8.7 0.00 0.00 0.00 56 1015.0
20260904203345 75 205 4.3 8.7 0.00 0.00 0.00 56 1015.0
20260904203341 75 227 4.3 8.7 0.00 0.00 0.00 56 1015.0
20260904203106 75 223 4.3 8.7 0.00 0.00 0.00 56 1015.0
20260904203000 75 236 4.3 8.7 0.00 0.00 0.00 56 1015.0
20260904202901 75 224 4.3 8.7 0.00 0.00 0.00 56 1015.0
20260904202801 75 200 4.3 8.7 0.00 0.00 0.00 56 1015.0
20260904202700 75 223 4.3 9.6 0.00 0.00 0.00 56 1015.0
20260904202629 75 262 4.3 9.6 0.00 0.00 0.00 56 1015.0
20260904202601 75 217 4.3 9.6 0.00 0.00 0.00 56 1015.0
20260904202501 75 234 4.3 9.6 0.00 0.00 0.00 56 1015.0
20260904202402 75 240 4.3 10.4 0.00 0.00 0.00 56 1015.0
20260904202301 75 240 4.3 10.4 0.00 0.00 0.00 56 1015.0
20260904202201 75 243 4.3 10.4 0.00 0.00 0.00 55 1014.9
20260904202128 75 235 4.3 10.4 0.00 0.00 0.00 56 1014.9
20260904202101 75 211 4.3 10.4 0.00 0.00 0.00 56 1015.0
20260904202001 75 228 4.3 10.4 0.00 0.00 0.00 55 1015.0
20260904201901 75 261 4.3 10.4 0.00 0.00 0.00 55 1015.0
20260904201801 75 234 4.3 10.4 0.00 0.00 0.00 55 1015.0
20260904201701 75 219 4.3 10.4 0.00 0.00 0.00 55 1014.9
20260904201628 75 223 4.3 10.4 0.00 0.00 0.00 55 1014.9
20260904201601 75 234 4.3 10.4 0.00 0.00 0.00 55 1014.9
20260904201501 75 234 4.3 10.4 0.00 0.00 0.00 55 1014.9
20260904201401 75 235 4.3 8.7 0.00 0.00 0.00 55 1014.9
20260904201300 75 269 4.3 8.7 0.00 0.00 0.00 55 1014.9
20260904201200 75 236 4.3 8.7 0.00 0.00 0.00 55 1014.9
20260904201129 75 250 4.3 8.7 0.00 0.00 0.00 55 1014.9
20260904201101 75 250 4.3 8.7 0.00 0.00 0.00 54 1014.9
20260904201001 75 233 4.3 8.7 0.00 0.00 0.00 54 1014.9
20260904200901 75 212 4.3 8.7 0.00 0.00 0.00 55 1014.9
20260904200856 76 219 4.3 7.8 0.00 0.00 0.00 54 1014.9
20260904200846 75 231 4.3 7.8 0.00 0.00 0.00 54 1014.9
20260904200841 76 232 4.3 7.8 0.00 0.00 0.00 55 1014.9
20260904200601 76 217 4.3 7.8 0.00 0.00 0.00 54 1014.9
20260904200501 76 263 4.3 7.8 0.00 0.00 0.00 54 1014.9
20260904200401 76 260 4.3 7.8 0.00 0.00 0.00 54 1015.0
20260904200354 76 244 4.3 7.8 0.00 0.00 0.00 54 1014.9
20260904200345 76 238 4.3 7.8 0.00 0.00 0.00 54 1014.9
20260904200340 76 224 4.3 7.8 0.00 0.00 0.00 54 1014.9
20260904200033 76 273 4.3 7.8 0.00 0.00 0.00 54 1014.9
20260904200002 76 273 4.3 7.8 0.00 0.00 0.00 54 1014.9
20260904195901 76 236 4.3 7.8 0.00 0.00 0.00 54 1014.9
20260904195801 76 243 4.3 7.8 0.00 0.00 0.00 54 1014.8
20260904195701 76 253 4.3 7.8 0.00 0.00 0.00 54 1014.9
20260904195628 76 269 4.3 7.8 0.00 0.00 0.00 54 1014.9
20260904195601 76 257 4.3 7.0 0.00 0.00 0.00 54 1014.9
20260904195501 76 237 5.2 7.0 0.00 0.00 0.00 54 1014.9
20260904195401 76 269 5.2 7.0 0.00 0.00 0.00 54 1014.9
20260904195300 76 257 5.2 7.0 0.00 0.00 0.00 54 1014.9
20260904195155 76 236 5.2 7.8 0.00 0.00 0.00 54 1014.9
20260904195128 76 243 5.2 7.8 0.00 0.00 0.00 54 1014.9
20260904195100 76 278 5.2 7.8 0.00 0.00 0.00 54 1014.8
20260904194955 76 281 5.2 7.8 0.00 0.00 0.00 53 1014.9
20260904194855 76 277 5.2 7.8 0.00 0.00 0.00 54 1014.8
20260904194755 76 234 5.2 7.8 0.00 0.00 0.00 53 1014.9
20260904194649 76 251 5.2 7.8 0.00 0.00 0.00 53 1014.9
20260904194630 76 260 5.2 7.8 0.00 0.00 0.00 53 1014.9
20260904194548 76 241 5.2 7.8 0.00 0.00 0.00 53 1014.8
20260904194448 76 229 5.2 8.7 0.00 0.00 0.00 53 1014.9
20260904194348 76 222 5.2 9.6 0.00 0.00 0.00 53 1014.8
20260904194249 76 248 5.2 9.6 0.00 0.00 0.00 53 1014.8
20260904194144 76 254 5.2 9.6 0.00 0.00 0.00 53 1014.8
20260904194128 76 246 5.2 9.6 0.00 0.00 0.00 53 1014.8
20260904194044 76 219 5.2 9.6 0.00 0.00 0.00 53 1014.8
20260904193945 76 273 5.2 9.6 0.00 0.00 0.00 53 1014.7
20260904193859 76 262 5.2 10.4 0.00 0.00 0.00 53 1014.7
20260904193854 76 225 5.2 9.6 0.00 0.00 0.00 53 1014.8
20260904193845 76 262 5.2 9.6 0.00 0.00 0.00 53 1014.8
20260904193842 76 243 5.2 9.6 0.00 0.00 0.00 53 1014.7
20260904193542 76 281 5.2 10.4 0.00 0.00 0.00 53 1014.7
20260904193442 76 279 6.1 10.4 0.00 0.00 0.00 52 1014.8
20260904193342 76 243 6.1 10.4 0.00 0.00 0.00 52 1014.7
20260904193243 76 257 6.1 10.4 0.00 0.00 0.00 52 1014.7
20260904193142 76 249 6.1 10.4 0.00 0.00 0.00 52 1014.7
20260904193129 76 256 6.1 10.4 0.00 0.00 0.00 52 1014.7
20260904193043 76 261 6.1 10.4 0.00 0.00 0.00 52 1014.7
20260904192943 76 299 6.1 10.4 0.00 0.00 0.00 52 1014.8
20260904192856 76 221 6.1 10.4 0.00 0.00 0.00 52 1014.7
20260904192851 76 258 6.1 10.4 0.00 0.00 0.00 52 1014.8
20260904192843 76 226 6.1 10.4 0.00 0.00 0.00 52 1014.7
20260904192839 76 239 6.1 10.4 0.00 0.00 0.00 52 1014.7
20260904192541 76 275 6.1 10.4 0.00 0.00 0.00 52 1014.7
20260904192441 76 269 6.1 10.4 0.00 0.00 0.00 52 1014.6
20260904192346 76 236 6.1 11.3 0.00 0.00 0.00 52 1014.7
20260904192241 76 269 6.1 11.3 0.00 0.00 0.00 52 1014.6
20260904192141 76 240 7.0 11.3 0.00 0.00 0.00 52 1014.6
20260904192128 76 259 7.0 11.3 0.00 0.00 0.00 52 1014.6
20260904192040 76 235 7.0 11.3 0.00 0.00 0.00 52 1014.6
20260904191936 76 255 7.0 11.3 0.00 0.00 0.00 52 1014.6
20260904191837 76 267 7.0 11.3 0.00 0.00 0.00 52 1014.6
20260904191737 76 225 7.0 11.3 0.00 0.00 0.00 52 1014.6
20260904191638 76 269 7.0 11.3 0.00 0.00 0.00 52 1014.6
20260904191629 76 251 7.0 11.3 0.00 0.00 0.00 52 1014.6
20260904191535 76 236 7.0 11.3 0.00 0.00 0.00 52 1014.6
20260904191432 76 270 7.0 11.3 0.00 0.00 0.00 52 1014.5
20260904191332 76 253 7.0 10.4 0.00 0.00 0.00 52 1014.5
20260904191230 76 267 6.1 10.4 0.00 0.00 0.00 52 1014.5
20260904191132 76 254 6.1 10.4 0.00 0.00 0.00 52 1014.5
20260904191128 76 261 6.1 10.4 0.00 0.00 0.00 52 1014.5
20260904191031 76 248 6.1 10.4 0.00 0.00 0.00 52 1014.5
20260904190929 76 252 5.2 9.6 0.00 0.00 0.00 52 1014.5
20260904190829 76 265 5.2 10.4 0.00 0.00 0.00 52 1014.4
20260904190729 76 275 5.2 10.4 0.00 0.00 0.00 52 1014.4
20260904190629 76 261 5.2 10.4 0.00 0.00 0.00 52 1014.5
20260904190529 76 264 5.2 10.4 0.00 0.00 0.00 52 1014.4
20260904190428 76 221 5.2 10.4 0.00 0.00 0.00 52 1014.4
20260904190328 76 277 5.2 10.4 0.00 0.00 0.00 52 1014.3
20260904190228 76 273 5.2 10.4 0.00 0.00 0.00 52 1014.3
20260904190129 76 267 5.2 10.4 0.00 0.00 0.00 52 1014.3
20260904190029 76 250 5.2 10.4 0.00 0.00 0.00 52 1014.3
20260904185929 76 261 5.2 10.4 0.00 0.00 0.00 52 1014.3
20260904185829 76 250 5.2 9.6 0.00 0.00 0.00 52 1014.3
20260904185729 76 258 5.2 9.6 0.00 0.00 0.00 52 1014.3
20260904185629 76 253 5.2 9.6 0.00 0.00 0.00 52 1014.3
20260904185529 76 255 5.2 9.6 0.00 0.00 0.00 51 1014.2
20260904185430 76 235 4.3 9.6 0.00 0.00 0.00 52 1014.2
20260904185329 76 252 4.3 9.6 0.00 0.00 0.00 51 1014.2
20260904185229 76 271 4.3 9.6 0.00 0.00 0.00 51 1014.2
20260904185129 77 250 4.3 9.6 0.00 0.00 0.00 51 1014.2
20260904185028 77 246 4.3 9.6 0.00 0.00 0.00 51 1014.2
20260904184929 77 279 4.3 7.0 0.00 0.00 0.00 51 1014.2
20260904184829 77 248 4.3 7.0 0.00 0.00 0.00 51 1014.2
20260904184728 77 244 3.5 7.0 0.00 0.00 0.00 51 1014.2
20260904184628 77 255 3.5 7.0 0.00 0.00 0.00 51 1014.2
20260904184529 77 253 3.5 7.0 0.00 0.00 0.00 51 1014.1
20260904184429 77 276 3.5 7.0 0.00 0.00 0.00 51 1014.2
20260904184353 77 266 3.5 7.0 0.00 0.00 0.00 51 1014.2
20260904184345 77 227 3.5 7.0 0.00 0.00 0.00 51 1014.1
20260904184340 77 263 3.5 7.0 0.00 0.00 0.00 50 1014.1
20260904184028 77 253 3.5 7.0 0.00 0.00 0.00 50 1014.1
20260904183928 77 255 3.5 7.0 0.00 0.00 0.00 50 1014.1
20260904183858 77 261 3.5 7.8 0.00 0.00 0.00 50 1013.9
20260904183849 77 248 3.5 7.0 0.00 0.00 0.00 50 1014.1
20260904183841 77 241 3.5 7.8 0.00 0.00 0.00 50 1014.1
20260904183837 77 259 3.5 7.8 0.00 0.00 0.00 50 1014.1
20260904183528 77 279 3.5 7.8 0.00 0.00 0.00 50 1013.9
20260904183428 77 271 3.5 7.8 0.00 0.00 0.00 50 1014.1
20260904183329 77 250 3.5 7.8 0.00 0.00 0.00 50 1014.1
20260904183229 77 256 3.5 7.8 0.00 0.00 0.00 50 1013.9
20260904183129 77 267 3.5 7.8 0.00 0.00 0.00 50 1013.9
20260904183120 77 268 3.5 7.8 0.00 0.00 0.00 50 1013.9
20260904183028 77 270 3.5 7.8 0.00 0.00 0.00 50 1013.9
20260904182929 77 270 3.5 7.8 0.00 0.00 0.00 50 1013.9
20260904182829 77 267 3.5 7.8 0.00 0.00 0.00 50 1013.9
20260904182728 77 278 3.5 6.1 0.00 0.00 0.00 50 1013.9
20260904182629 77 254 3.5 6.1 0.00 0.00 0.00 50 1013.9
20260904182615 78 243 3.5 6.1 0.00 0.00 0.00 50 1013.9
20260904182529 78 252 3.5 7.0 0.00 0.00 0.00 50 1013.9
20260904182429 78 238 3.5 7.8 0.00 0.00 0.00 49 1013.9
20260904182338 78 265 3.5 7.8 0.00 0.00 0.00 49 1013.8
20260904182334 78 239 3.5 7.8 0.00 0.00 0.00 50 1013.9
20260904182325 78 263 3.5 7.8 0.00 0.00 0.00 49 1013.9
20260904182321 78 265 3.5 7.8 0.00 0.00 0.00 49 1013.9
20260904182030 78 254 3.5 7.8 0.00 0.00 0.00 49 1013.8
20260904181929 78 259 3.5 7.8 0.00 0.00 0.00 49 1013.9
20260904181829 78 267 4.3 7.8 0.00 0.00 0.00 49 1013.8
20260904181729 78 244 4.3 7.8 0.00 0.00 0.00 49 1013.8
20260904181629 78 242 4.3 7.8 0.00 0.00 0.00 49 1013.8
20260904181611 78 252 4.3 7.8 0.00 0.00 0.00 49 1013.8
20260904181529 78 244 4.3 7.8 0.00 0.00 0.00 49 1013.8
20260904181429 78 248 4.3 7.0 0.00 0.00 0.00 49 1013.8
20260904181329 78 244 4.3 7.0 0.00 0.00 0.00 49 1013.8
20260904181229 78 223 4.3 7.0 0.00 0.00 0.00 49 1013.8
20260904181129 78 257 4.3 9.6 0.00 0.00 0.00 49 1013.8
20260904181110 78 258 4.3 9.6 0.00 0.00 0.00 49 1013.7
20260904181028 78 247 4.3 9.6 0.00 0.00 0.00 49 1013.7
20260904180928 78 291 4.3 9.6 0.00 0.00 0.00 49 1013.7
20260904180828 78 273 4.3 9.6 0.00 0.00 0.00 49 1013.7
20260904180732 78 246 4.3 9.6 0.00 0.00 0.00 48 1013.7
20260904180623 78 285 4.3 9.6 0.00 0.00 0.00 48 1013.6
20260904180611 78 249 4.3 9.6 0.00 0.00 0.00 48 1013.6
20260904180523 78 280 4.3 9.6 0.00 0.00 0.00 49 1013.7
20260904180423 78 280 4.3 9.6 0.00 0.00 0.00 48 1013.6
20260904180323 78 257 4.3 9.6 0.00 0.00 0.00 48 1013.6
20260904180227 78 279 4.3 9.6 0.00 0.00 0.00 48 1013.6
20260904180123 78 257 4.3 7.8 0.00 0.00 0.00 48 1013.6
20260904180110 79 262 4.3 7.8 0.00 0.00 0.00 48 1013.6
20260904180023 79 265 4.3 7.8 0.00 0.00 0.00 48 1013.6
20260904175922 79 270 3.5 7.8 0.00 0.00 0.00 48 1013.6
20260904175822 79 238 3.5 7.8 0.00 0.00 0.00 47 1013.6
20260904175724 79 236 3.5 7.8 0.00 0.00 0.00 48 1013.6
20260904175622 79 265 4.3 7.8 0.00 0.00 0.00 48 1013.6
20260904175611 79 275 4.3 7.8 0.00 0.00 0.00 47 1013.6
20260904175559 79 247 4.3 7.8 0.00 0.00 0.00 47 1013.6
20260904175553 79 265 4.3 7.8 0.00 0.00 0.00 48 1013.6
20260904175549 79 239 4.3 7.8 0.00 0.00 0.00 47 1013.6
20260904175334 79 242 4.3 7.8 0.00 0.00 0.00 47 1013.6
20260904175329 79 259 4.3 7.8 0.00 0.00 0.00 47 1013.6
20260904175321 79 236 3.5 7.8 0.00 0.00 0.00 47 1013.6
20260904175023 79 261 3.5 7.8 0.00 0.00 0.00 48 1013.6
20260904174919 79 274 4.3 7.8 0.00 0.00 0.00 47 1013.6
20260904174818 79 286 3.5 7.8 0.00 0.00 0.00 47 1013.5
20260904174720 79 248 3.5 7.8 0.00 0.00 0.00 47 1013.6
20260904174619 79 226 3.5 7.8 0.00 0.00 0.00 47 1013.5
20260904174610 79 225 3.5 7.8 0.00 0.00 0.00 47 1013.5
20260904174518 79 252 3.5 7.8 0.00 0.00 0.00 47 1013.6
20260904174416 79 216 3.5 7.8 0.00 0.00 0.00 47 1013.6
20260904174316 80 236 3.5 7.8 0.00 0.00 0.00 47 1013.6
20260904174218 80 246 3.5 7.8 0.00 0.00 0.00 47 1013.5
20260904174116 80 267 3.5 7.8 0.00 0.00 0.00 47 1013.6
20260904174109 80 232 3.5 7.8 0.00 0.00 0.00 47 1013.6
20260904174017 80 209 3.5 7.8 0.00 0.00 0.00 46 1013.6
20260904173917 80 259 3.5 7.8 0.00 0.00 0.00 46 1013.6
20260904173832 80 216 3.5 7.8 0.00 0.00 0.00 46 1013.6
20260904173828 80 231 3.5 7.8 0.00 0.00 0.00 46 1013.6
20260904173820 80 230 4.3 7.8 0.00 0.00 0.00 46 1013.5
20260904173513 80 262 4.3 7.8 0.00 0.00 0.00 46 1013.6
20260904173413 80 235 4.3 7.8 0.00 0.00 0.00 46 1013.5
20260904173313 80 223 4.3 8.7 0.00 0.00 0.00 46 1013.5
20260904173214 80 221 4.3 8.7 0.00 0.00 0.00 46 1013.5
20260904173113 80 216 3.5 8.7 0.00 0.00 0.00 46 1013.4
20260904173109 80 236 3.5 8.7 0.00 0.00 0.00 46 1013.4
20260904173013 80 273 4.3 8.7 0.00 0.00 0.00 46 1013.4
20260904172913 80 287 4.3 8.7 0.00 0.00 0.00 46 1013.4
20260904172813 80 242 4.3 8.7 0.00 0.00 0.00 45 1013.5
20260904172713 80 234 4.3 8.7 0.00 0.00 0.00 46 1013.5
20260904172608 80 225 4.3 8.7 0.00 0.00 0.00 45 1013.5
20260904172512 81 238 4.3 8.7 0.00 0.00 0.00 45 1013.5
20260904172412 81 223 4.3 8.7 0.00 0.00 0.00 45 1013.5
20260904172323 81 228 5.2 10.4 0.00 0.00 0.00 45 1013.5
20260904172319 81 227 4.3 7.8 0.00 0.00 0.00 45 1013.5
20260904172315 81 232 4.3 7.8 0.00 0.00 0.00 45 1013.5
20260904172305 81 225 4.3 7.8 0.00 0.00 0.00 45 1013.4
20260904172047 81 208 4.3 7.8 0.00 0.00 0.00 45 1013.5
20260904172043 81 257 4.3 7.8 0.00 0.00 0.00 45 1013.5
20260904171828 81 240 5.2 9.6 0.00 0.00 0.00 45 1013.5
20260904171824 81 246 5.2 10.4 0.00 0.00 0.00 45 1013.5
20260904171816 81 220 5.2 10.4 0.00 0.00 0.00 45 1013.5
20260904171508 81 269 4.3 10.4 0.00 0.00 0.00 45 1013.5
20260904171408 81 200 4.3 10.4 0.00 0.00 0.00 44 1013.5
20260904171308 81 229 4.3 10.4 0.00 0.00 0.00 44 1013.5
20260904171208 81 231 4.3 10.4 0.00 0.00 0.00 44 1013.5
20260904171108 81 219 5.2 10.4 0.00 0.00 0.00 45 1013.5
20260904171104 81 226 5.2 10.4 0.00 0.00 0.00 45 1013.5
20260904171008 81 236 5.2 10.4 0.00 0.00 0.00 45 1013.5
20260904170908 81 251 5.2 10.4 0.00 0.00 0.00 44 1013.5
20260904170809 81 240 4.3 10.4 0.00 0.00 0.00 44 1013.5
20260904170715 82 244 4.3 8.7 0.00 0.00 0.00 45 1013.5
20260904170608 82 276 4.3 8.7 0.00 0.00 0.00 45 1013.5
20260904170604 82 221 4.3 8.7 0.00 0.00 0.00 45 1013.5
20260904170508 82 236 4.3 8.7 0.00 0.00 0.00 44 1013.5
20260904170409 82 215 4.3 8.7 0.00 0.00 0.00 44 1013.5
20260904170309 82 251 4.3 8.7 0.00 0.00 0.00 45 1013.5
20260904170209 82 265 5.2 8.7 0.00 0.00 0.00 45 1013.4
20260904170109 82 252 5.2 12.2 0.00 0.00 0.00 45 1013.6
20260904170105 82 255 5.2 12.2 0.00 0.00 0.00 45 1013.6
20260904170009 82 227 5.2 12.2 0.00 0.00 0.00 45 1013.5
20260904165904 82 273 5.2 12.2 0.00 0.00 0.00 44 1013.5
20260904165804 82 241 5.2 12.2 0.00 0.00 0.00 44 1013.5
20260904165704 82 238 5.2 12.2 0.00 0.00 0.00 44 1013.6
20260904165607 82 244 5.2 12.2 0.00 0.00 0.00 45 1013.6
20260904165603 82 246 5.2 12.2 0.00 0.00 0.00 45 1013.6
20260904165505 82 242 5.2 12.2 0.00 0.00 0.00 45 1013.6
20260904165405 82 235 5.2 12.2 0.00 0.00 0.00 45 1013.5
20260904165336 82 248 5.2 8.7 0.00 0.00 0.00 44 1013.6
20260904165327 82 248 5.2 12.2 0.00 0.00 0.00 44 1013.5
20260904165323 82 261 5.2 12.2 0.00 0.00 0.00 44 1013.6
20260904165315 82 236 5.2 8.7 0.00 0.00 0.00 44 1013.6
20260904165005 82 232 5.2 10.4 0.00 0.00 0.00 44 1013.5
20260904164905 82 295 5.2 10.4 0.00 0.00 0.00 44 1013.5
20260904164805 82 221 5.2 10.4 0.00 0.00 0.00 44 1013.5
20260904164704 83 202 5.2 10.4 0.00 0.00 0.00 45 1013.5
20260904164602 83 257 5.2 10.4 0.00 0.00 0.00 44 1013.6
20260904164502 83 227 5.2 10.4 0.00 0.00 0.00 44 1013.5
20260904164402 83 234 5.2 12.2 0.00 0.00 0.00 44 1013.5
20260904164302 83 217 5.2 12.2 0.00 0.00 0.00 44 1013.5
20260904164202 83 241 5.2 12.2 0.00 0.00 0.00 44 1013.5
20260904164101 83 204 5.2 12.2 0.00 0.00 0.00 44 1013.5
20260904164000 83 246 5.2 12.2 0.00 0.00 0.00 43 1013.5
20260904163900 83 258 5.2 12.2 0.00 0.00 0.00 44 1013.4
20260904163801 83 202 5.2 12.2 0.00 0.00 0.00 44 1013.5
20260904163701 83 267 5.2 12.2 0.00 0.00 0.00 43 1013.5
20260904163600 83 213 6.1 12.2 0.00 0.00 0.00 43 1013.5
20260904163500 83 228 6.1 12.2 0.00 0.00 0.00 43 1013.5
20260904163401 83 217 6.1 11.3 0.00 0.00 0.00 43 1013.5
20260904163301 83 244 6.1 11.3 0.00 0.00 0.00 43 1013.5
20260904163201 83 220 6.1 11.3 0.00 0.00 0.00 42 1013.5
20260904163101 83 243 6.1 11.3 0.00 0.00 0.00 43 1013.6
20260904163001 83 228 6.1 12.2 0.00 0.00 0.00 42 1013.5
20260904162900 83 251 6.1 12.2 0.00 0.00 0.00 43 1013.5
20260904162800 83 296 6.1 12.2 0.00 0.00 0.00 42 1013.5
20260904162700 83 252 6.1 12.2 0.00 0.00 0.00 43 1013.5
20260904162600 83 233 6.1 12.2 0.00 0.00 0.00 42 1013.6
20260904162501 83 222 6.1 12.2 0.00 0.00 0.00 43 1013.5
20260904162400 83 243 6.1 12.2 0.00 0.00 0.00 42 1013.6
20260904162300 83 226 6.1 12.2 0.00 0.00 0.00 42 1013.6
20260904162200 83 248 6.1 12.2 0.00 0.00 0.00 41 1013.6
20260904162102 83 275 6.1 12.2 0.00 0.00 0.00 42 1013.5
20260904162000 83 265 6.1 12.2 0.00 0.00 0.00 42 1013.5
20260904161900 83 265 6.1 12.2 0.00 0.00 0.00 43 1013.6
20260904161823 83 267 6.1 12.2 0.00 0.00 0.00 42 1013.6
20260904161819 83 281 6.1 12.2 0.00 0.00 0.00 42 1013.5
20260904161811 83 266 7.0 13.0 0.00 0.00 0.00 41 1013.6
20260904161500 83 271 7.0 13.9 0.00 0.00 0.00 41 1013.6
20260904161400 83 265 7.0 13.9 0.00 0.00 0.00 42 1013.6
20260904161324 83 255 6.1 13.9 0.00 0.00 0.00 42 1013.6
20260904161320 83 232 6.1 13.9 0.00 0.00 0.00 42 1013.6
20260904161312 83 255 7.0 14.8 0.00 0.00 0.00 42 1013.6
20260904161001 83 298 7.0 14.8 0.00 0.00 0.00 42 1013.6
20260904160901 84 234 7.0 14.8 0.00 0.00 0.00 42 1013.6
20260904160801 84 273 7.8 15.6 0.00 0.00 0.00 42 1013.6
20260904160701 84 298 7.0 15.6 0.00 0.00 0.00 41 1013.7
20260904160601 84 242 7.0 15.6 0.00 0.00 0.00 41 1013.7
20260904160501 84 268 7.0 15.6 0.00 0.00 0.00 41 1013.6
20260904160401 84 259 7.8 15.6 0.00 0.00 0.00 40 1013.7
20260904160301 84 234 7.8 15.6 0.00 0.00 0.00 41 1013.7
20260904160201 84 223 7.8 15.6 0.00 0.00 0.00 41 1013.6
20260904160001 84 277 7.8 15.6 0.00 0.00 0.00 41 1013.7
20260904155901 84 215 7.8 15.6 0.00 0.00 0.00 41 1013.7
20260904155801 84 206 7.0 13.9 0.00 0.00 0.00 40 1013.7
20260904155701 84 232 7.0 13.9 0.00 0.00 0.00 41 1013.6
20260904155600 84 251 7.0 13.9 0.00 0.00 0.00 41 1013.7
20260904155500 84 254 7.0 13.9 0.00 0.00 0.00 41 1013.6
20260904155401 84 0 7.0 13.9 0.00 0.00 0.00 41 1013.7
20260904155301 84 222 7.0 13.9 0.00 0.00 0.00 40 1013.7
20260904155201 84 241 6.1 13.9 0.00 0.00 0.00 40 1013.7
20260904155101 84 273 6.1 13.9 0.00 0.00 0.00 41 1013.7
20260904155001 84 222 6.1 12.2 0.00 0.00 0.00 42 1013.7
20260904154901 84 258 7.0 13.9 0.00 0.00 0.00 42 1013.7
20260904154801 84 250 7.0 13.9 0.00 0.00 0.00 41 1013.7
20260904154701 84 229 7.0 13.9 0.00 0.00 0.00 41 1013.7
20260904154601 84 233 7.0 13.9 0.00 0.00 0.00 40 1013.7
20260904154501 84 263 7.0 13.9 0.00 0.00 0.00 41 1013.7
20260904154401 84 222 7.0 13.9 0.00 0.00 0.00 40 1013.8
20260904154300 84 228 7.0 13.9 0.00 0.00 0.00 40 1013.7
20260904154200 84 227 7.0 13.9 0.00 0.00 0.00 40 1013.8
20260904154103 84 225 7.8 13.9 0.00 0.00 0.00 40 1013.8
20260904154059 84 229 7.8 13.9 0.00 0.00 0.00 40 1013.8
20260904153954 84 250 7.8 13.9 0.00 0.00 0.00 40 1013.8
20260904153854 84 276 7.8 13.9 0.00 0.00 0.00 40 1013.8
20260904153754 84 209 7.8 13.9 0.00 0.00 0.00 40 1013.8
20260904153653 84 236 7.0 13.9 0.00 0.00 0.00 40 1013.8
20260904153601 84 242 7.8 13.9 0.00 0.00 0.00 41 1013.8
20260904153552 84 270 7.8 13.9 0.00 0.00 0.00 41 1013.8
20260904153446 84 232 7.8 13.9 0.00 0.00 0.00 41 1013.7
20260904153346 84 255 8.7 13.9 0.00 0.00 0.00 40 1013.8
20260904153246 84 240 8.7 13.9 0.00 0.00 0.00 40 1013.8
20260904153146 84 261 8.7 13.9 0.00 0.00 0.00 39 1013.8
20260904153101 84 281 7.8 13.9 0.00 0.00 0.00 39 1013.9
20260904153046 84 252 7.8 13.9 0.00 0.00 0.00 39 1013.9
20260904152940 84 254 7.8 13.0 0.00 0.00 0.00 40 1013.9
20260904152840 84 268 7.8 13.0 0.00 0.00 0.00 40 1013.8
20260904152740 84 242 7.8 13.0 0.00 0.00 0.00 40 1013.8
20260904152640 85 276 7.8 13.0 0.00 0.00 0.00 39 1013.8
20260904152601 85 256 7.8 13.0 0.00 0.00 0.00 39 1013.9
20260904152539 85 238 7.8 13.0 0.00 0.00 0.00 39 1013.9
20260904152436 85 207 7.8 13.0 0.00 0.00 0.00 39 1014.1
20260904152334 85 257 7.0 13.0 0.00 0.00 0.00 39 1013.9
20260904152234 85 248 7.0 13.0 0.00 0.00 0.00 40 1013.9
20260904152134 85 215 7.0 13.0 0.00 0.00 0.00 39 1013.9
20260904152105 85 284 7.8 13.0 0.00 0.00 0.00 39 1013.9
20260904152034 85 270 7.8 13.0 0.00 0.00 0.00 40 1013.9
20260904151935 85 286 7.8 13.0 0.00 0.00 0.00 40 1014.1
20260904151832 85 252 7.8 13.9 0.00 0.00 0.00 40 1014.1
20260904151828 85 256 7.8 13.9 0.00 0.00 0.00 41 1014.1
20260904151819 85 263 7.8 13.9 0.00 0.00 0.00 41 1014.1
20260904151815 85 275 7.8 13.9 0.00 0.00 0.00 42 1013.9
20260904151532 85 269 7.8 13.9 0.00 0.00 0.00 41 1014.1
20260904151432 85 249 8.7 13.9 0.00 0.00 0.00 41 1013.9
20260904151331 85 279 8.7 13.9 0.00 0.00 0.00 40 1014.1
20260904151229 84 256 8.7 13.9 0.00 0.00 0.00 40 1014.1
20260904151129 84 254 9.6 15.6 0.00 0.00 0.00 40 1014.1
20260904151104 85 250 9.6 15.6 0.00 0.00 0.00 40 1014.1
20260904151030 85 265 9.6 15.6 0.00 0.00 0.00 39 1014.1
20260904150929 84 257 9.6 15.6 0.00 0.00 0.00 40 1014.2
20260904150829 85 284 9.6 15.6 0.00 0.00 0.00 39 1014.2
20260904150728 85 268 9.6 15.6 0.00 0.00 0.00 39 1014.1
20260904150629 85 275 9.6 15.6 0.00 0.00 0.00 39 1014.1
20260904150602 85 286 10.4 17.4 0.00 0.00 0.00 39 1014.2
20260904150529 85 254 10.4 17.4 0.00 0.00 0.00 39 1014.2
20260904150429 85 229 10.4 17.4 0.00 0.00 0.00 39 1014.1
20260904150329 85 273 10.4 17.4 0.00 0.00 0.00 38 1014.1
20260904150228 85 232 10.4 17.4 0.00 0.00 0.00 38 1014.2
20260904150129 85 280 10.4 17.4 0.00 0.00 0.00 38 1014.2
20260904150101 85 276 10.4 17.4 0.00 0.00 0.00 38 1014.1
20260904150029 85 288 10.4 17.4 0.00 0.00 0.00 38 1014.1
20260904145928 85 254 9.6 17.4 0.00 0.00 0.00 38 1014.3
20260904145828 85 240 8.7 17.4 0.00 0.00 0.00 39 1014.2
20260904145729 85 279 8.7 17.4 0.00 0.00 0.00 38 1014.2
20260904145629 85 259 7.8 17.4 0.00 0.00 0.00 38 1014.2
20260904145601 85 278 7.0 16.5 0.00 0.00 0.00 37 1014.3
20260904145529 85 269 7.0 16.5 0.00 0.00 0.00 37 1014.3
20260904145429 85 290 7.0 16.5 0.00 0.00 0.00 38 1014.2
20260904145328 85 263 6.1 13.0 0.00 0.00 0.00 38 1014.1
20260904145229 85 250 5.2 11.3 0.00 0.00 0.00 39 1014.1
20260904145129 85 251 5.2 11.3 0.00 0.00 0.00 39 1014.1
20260904145100 85 245 5.2 9.6 0.00 0.00 0.00 39 1014.2
20260904145029 85 281 5.2 10.4 0.00 0.00 0.00 39 1014.2
20260904144929 85 295 5.2 11.3 0.00 0.00 0.00 38 1014.1
20260904144829 85 256 6.1 16.5 0.00 0.00 0.00 40 1014.2
20260904144729 85 267 7.0 16.5 0.00 0.00 0.00 39 1014.2
20260904144628 85 275 7.0 16.5 0.00 0.00 0.00 40 1014.2
20260904144601 85 272 7.8 16.5 0.00 0.00 0.00 40 1014.1
20260904144529 85 225 7.8 16.5 0.00 0.00 0.00 39 1014.1
20260904144428 85 259 7.8 16.5 0.00 0.00 0.00 39 1014.2
20260904144328 85 290 7.8 16.5 0.00 0.00 0.00 38 1014.2
20260904144228 85 248 8.7 16.5 0.00 0.00 0.00 38 1014.2
20260904144127 85 272 9.6 16.5 0.00 0.00 0.00 38 1014.2
20260904144102 85 253 9.6 16.5 0.00 0.00 0.00 38 1014.2
20260904144024 85 277 9.6 16.5 0.00 0.00 0.00 38 1014.3
20260904143924 86 240 9.6 16.5 0.00 0.00 0.00 38 1014.3
20260904143833 86 258 9.6 14.8 0.00 0.00 0.00 37 1014.2
20260904143824 86 285 9.6 14.8 0.00 0.00 0.00 39 1014.3
20260904143817 86 236 9.6 14.8 0.00 0.00 0.00 38 1014.3
20260904143813 86 216 9.6 14.8 0.00 0.00 0.00 37 1014.2
20260904143519 86 269 9.6 14.8 0.00 0.00 0.00 37 1014.3
20260904143416 86 271 9.6 14.8 0.00 0.00 0.00 38 1014.3
20260904143316 86 272 8.7 14.8 0.00 0.00 0.00 37 1014.3
20260904143216 86 262 8.7 14.8 0.00 0.00 0.00 38 1014.3
20260904143115 86 239 9.6 14.8 0.00 0.00 0.00 38 1014.3
20260904143101 86 202 9.6 14.8 0.00 0.00 0.00 38 1014.3
20260904143012 86 219 8.7 13.9 0.00 0.00 0.00 38 1014.3
20260904142912 86 248 8.7 13.9 0.00 0.00 0.00 37 1014.3
20260904142818 86 248 8.7 17.4 0.00 0.00 0.00 38 1014.4
20260904142813 86 242 8.7 13.9 0.00 0.00 0.00 37 1014.3
20260904142809 86 251 8.7 13.9 0.00 0.00 0.00 37 1014.3
20260904142805 86 268 7.8 13.9 0.00 0.00 0.00 38 1014.3
20260904142800 86 267 7.8 13.9 0.00 0.00 0.00 38 1014.3
20260904142540 86 207 7.8 13.9 0.00 0.00 0.00 38 1014.4
20260904142536 86 262 8.7 13.9 0.00 0.00 0.00 38 1014.3
20260904142320 86 300 8.7 15.6 0.00 0.00 0.00 38 1014.4
20260904142316 86 257 8.7 16.5 0.00 0.00 0.00 38 1014.3
20260904142312 86 248 8.7 17.4 0.00 0.00 0.00 38 1014.4
20260904142002 86 210 8.7 17.4 0.00 0.00 0.00 38 1014.3
20260904141902 86 253 8.7 17.4 0.00 0.00 0.00 38 1014.3
20260904141802 86 236 9.6 17.4 0.00 0.00 0.00 38 1014.4
20260904141702 86 220 8.7 17.4 0.00 0.00 0.00 38 1014.4
20260904141605 86 242 8.7 17.4 0.00 0.00 0.00 38 1014.5
20260904141600 86 218 8.7 17.4 0.00 0.00 0.00 38 1014.5
20260904141509 86 298 8.7 17.4 0.00 0.00 0.00 38 1014.5
20260904141402 86 281 8.7 17.4 0.00 0.00 0.00 37 1014.5
20260904141322 86 239 7.8 17.4 0.00 0.00 0.00 37 1014.5
20260904141318 86 219 7.8 17.4 0.00 0.00 0.00 38 1014.5
20260904141314 86 257 7.8 13.9 0.00 0.00 0.00 37 1014.5
20260904141001 86 254 8.7 13.9 0.00 0.00 0.00 37 1014.5
20260904140901 86 211 8.7 16.5 0.00 0.00 0.00 37 1014.5
20260904140801 86 259 8.7 17.4 0.00 0.00 0.00 38 1014.5
20260904140701 86 279 8.7 17.4 0.00 0.00 0.00 38 1014.6
20260904140601 86 281 8.7 17.4 0.00 0.00 0.00 39 1014.5
20260904140501 86 254 8.7 17.4 0.00 0.00 0.00 38 1014.5
20260904140402 86 255 8.7 17.4 0.00 0.00 0.00 37 1014.6
20260904140320 86 255 8.7 17.4 0.00 0.00 0.00 38 1014.6
20260904140316 86 232 8.7 17.4 0.00 0.00 0.00 38 1014.6
20260904140312 86 212 8.7 17.4 0.00 0.00 0.00 37 1014.6
20260904140000 86 267 7.8 17.4 0.00 0.00 0.00 37 1014.6
20260904135901 86 241 7.8 17.4 0.00 0.00 0.00 38 1014.6
20260904135801 86 272 7.8 13.9 0.00 0.00 0.00 38 1014.5
20260904135701 86 302 7.8 13.9 0.00 0.00 0.00 38 1014.6
20260904135601 86 247 8.7 13.9 0.00 0.00 0.00 38 1014.7
20260904135501 86 245 8.7 13.9 0.00 0.00 0.00 39 1014.6
20260904135401 86 265 8.7 13.9 0.00 0.00 0.00 38 1014.7
20260904135301 86 217 7.8 13.9 0.00 0.00 0.00 38 1014.6
20260904135201 86 278 7.8 13.9 0.00 0.00 0.00 39 1014.6
20260904135101 86 287 7.8 13.9 0.00 0.00 0.00 38 1014.6
20260904135001 86 238 7.8 13.9 0.00 0.00 0.00 38 1014.7
20260904134901 86 267 7.8 13.9 0.00 0.00 0.00 38 1014.6
20260904134801 86 269 7.8 13.9 0.00 0.00 0.00 38 1014.7
20260904134701 86 257 7.0 13.9 0.00 0.00 0.00 38 1014.8
20260904134602 86 263 7.0 13.9 0.00 0.00 0.00 40 1014.6
20260904134558 86 263 7.0 13.9 0.00 0.00 0.00 40 1014.6
20260904134458 86 270 7.0 13.9 0.00 0.00 0.00 39 1014.7
20260904134359 86 256 7.8 13.9 0.00 0.00 0.00 39 1014.6
20260904134258 85 237 7.8 13.9 0.00 0.00 0.00 40 1014.7
20260904134157 85 281 7.8 13.9 0.00 0.00 0.00 40 1014.7
20260904134102 85 278 7.8 13.9 0.00 0.00 0.00 40 1014.6
20260904134054 85 281 7.8 13.9 0.00 0.00 0.00 40 1014.6
20260904133954 85 217 7.8 13.9 0.00 0.00 0.00 40 1014.8
20260904133854 85 238 8.7 13.9 0.00 0.00 0.00 41 1014.7
20260904133755 85 264 8.7 14.8 0.00 0.00 0.00 41 1014.7
20260904133651 85 252 7.8 14.8 0.00 0.00 0.00 41 1014.8
20260904133601 85 230 7.8 14.8 0.00 0.00 0.00 40 1014.8
20260904133548 85 257 7.8 14.8 0.00 0.00 0.00 40 1014.8
20260904133446 85 221 7.8 14.8 0.00 0.00 0.00 40 1014.8
20260904133346 85 200 7.8 14.8 0.00 0.00 0.00 40 1014.8
20260904133246 85 221 8.7 14.8 0.00 0.00 0.00 40 1014.9
20260904133146 85 219 8.7 14.8 0.00 0.00 0.00 39 1014.8
20260904133101 85 221 8.7 14.8 0.00 0.00 0.00 40 1014.9
20260904133042 85 211 8.7 14.8 0.00 0.00 0.00 40 1014.9
20260904132941 85 202 8.7 14.8 0.00 0.00 0.00 41 1014.8
20260904132842 85 225 8.7 14.8 0.00 0.00 0.00 40 1014.8
20260904132742 85 241 8.7 14.8 0.00 0.00 0.00 39 1014.8
20260904132639 85 222 8.7 14.8 0.00 0.00 0.00 40 1014.8
20260904132600 85 223 9.6 14.8 0.00 0.00 0.00 40 1014.8
20260904132535 85 204 9.6 14.8 0.00 0.00 0.00 40 1014.8
20260904132434 85 225 9.6 14.8 0.00 0.00 0.00 40 1014.9
20260904132334 85 222 8.7 14.8 0.00 0.00 0.00 39 1015.0
20260904132234 85 236 8.7 14.8 0.00 0.00 0.00 39 1014.9
20260904132134 85 214 8.7 14.8 0.00 0.00 0.00 40 1014.8
20260904132103 85 238 7.8 14.8 0.00 0.00 0.00 40 1014.9
20260904132029 85 214 7.8 14.8 0.00 0.00 0.00 40 1014.9
20260904131930 85 197 7.8 14.8 0.00 0.00 0.00 40 1014.9
20260904131830 85 226 7.8 14.8 0.00 0.00 0.00 39 1014.9
20260904131821 85 219 7.0 14.8 0.00 0.00 0.00 40 1015.0
20260904131816 85 212 7.0 14.8 0.00 0.00 0.00 40 1014.9
20260904131812 85 187 7.0 14.8 0.00 0.00 0.00 40 1014.9
20260904131530 85 217 7.0 14.8 0.00 0.00 0.00 40 1015.0
20260904131430 85 200 7.8 14.8 0.00 0.00 0.00 41 1015.0
20260904131329 85 252 7.8 14.8 0.00 0.00 0.00 40 1014.9
20260904131229 84 240 7.8 14.8 0.00 0.00 0.00 40 1014.9
20260904131129 84 197 7.8 14.8 0.00 0.00 0.00 41 1014.9
20260904131102 84 252 8.7 15.6 0.00 0.00 0.00 41 1014.9
20260904131049 84 226 9.6 16.5 0.00 0.00 0.00 41 1015.0
20260904131046 84 267 8.7 15.6 0.00 0.00 0.00 41 1014.9
20260904131038 84 199 8.7 15.6 0.00 0.00 0.00 39 1014.9
20260904131033 84 229 9.6 16.5 0.00 0.00 0.00 40 1014.9
20260904130816 84 219 9.6 16.5 0.00 0.00 0.00 40 1015.0
20260904130812 84 200 9.6 16.5 0.00 0.00 0.00 41 1015.0
20260904130529 84 231 9.6 16.5 0.00 0.00 0.00 40 1015.0
20260904130429 84 188 9.6 16.5 0.00 0.00 0.00 40 1015.0
20260904130329 84 204 9.6 16.5 0.00 0.00 0.00 40 1015.0
20260904130229 84 191 9.6 16.5 0.00 0.00 0.00 40 1015.0
20260904130129 84 246 9.6 16.5 0.00 0.00 0.00 41 1015.1
20260904130029 84 215 8.7 16.5 0.00 0.00 0.00 41 1015.1
20260904125929 84 218 8.7 16.5 0.00 0.00 0.00 40 1015.2
20260904125829 84 222 7.8 16.5 0.00 0.00 0.00 41 1015.1
20260904125728 84 252 7.8 16.5 0.00 0.00 0.00 42 1015.3
20260904125628 84 215 7.8 16.5 0.00 0.00 0.00 42 1015.1
20260904125601 84 204 8.7 16.5 0.00 0.00 0.00 41 1015.0
20260904125529 84 275 8.7 16.5 0.00 0.00 0.00 41 1015.0
20260904125429 84 278 8.7 16.5 0.00 0.00 0.00 42 1015.0
20260904125329 84 214 8.7 16.5 0.00 0.00 0.00 41 1015.1
20260904125229 84 263 8.7 16.5 0.00 0.00 0.00 42 1015.1
20260904125129 84 250 8.7 16.5 0.00 0.00 0.00 42 1015.1
20260904125101 84 234 8.7 16.5 0.00 0.00 0.00 42 1015.1
20260904125028 84 259 8.7 16.5 0.00 0.00 0.00 42 1015.1
20260904124929 84 229 9.6 16.5 0.00 0.00 0.00 41 1015.1
20260904124828 84 265 9.6 16.5 0.00 0.00 0.00 41 1015.1
20260904124728 84 242 9.6 16.5 0.00 0.00 0.00 41 1015.1
20260904124628 84 248 9.6 16.5 0.00 0.00 0.00 41 1015.2
20260904124601 84 217 9.6 16.5 0.00 0.00 0.00 40 1015.2
20260904124528 84 244 9.6 16.5 0.00 0.00 0.00 40 1015.2
20260904124427 84 210 9.6 18.2 0.00 0.00 0.00 41 1015.2
20260904124328 84 282 9.6 18.2 0.00 0.00 0.00 42 1015.3
20260904124227 84 222 8.7 18.2 0.00 0.00 0.00 41 1015.4
20260904124122 84 224 8.7 18.2 0.00 0.00 0.00 41 1015.4
20260904124102 84 207 8.7 18.2 0.00 0.00 0.00 42 1015.4
20260904124022 84 271 8.7 18.2 0.00 0.00 0.00 42 1015.3
20260904123922 84 225 8.7 18.2 0.00 0.00 0.00 41 1015.4
20260904123822 84 250 7.8 18.2 0.00 0.00 0.00 41 1015.4
20260904123721 84 269 7.8 18.2 0.00 0.00 0.00 41 1015.5
20260904123618 84 226 7.8 18.2 0.00 0.00 0.00 41 1015.5
20260904123601 83 261 7.8 18.2 0.00 0.00 0.00 41 1015.5
20260904123516 84 282 7.8 18.2 0.00 0.00 0.00 42 1015.5
20260904123416 83 283 7.8 17.4 0.00 0.00 0.00 42 1015.4
20260904123326 83 232 7.8 17.4 0.00 0.00 0.00 42 1015.5
20260904123319 83 265 7.8 17.4 0.00 0.00 0.00 40 1015.5
20260904123315 84 209 7.8 17.4 0.00 0.00 0.00 41 1015.5
20260904123311 83 237 7.8 17.4 0.00 0.00 0.00 42 1015.5
20260904123010 83 217 7.8 17.4 0.00 0.00 0.00 42 1015.5
20260904122910 83 232 7.8 17.4 0.00 0.00 0.00 42 1015.5
20260904122810 83 254 8.7 17.4 0.00 0.00 0.00 42 1015.5
20260904122710 83 227 8.7 17.4 0.00 0.00 0.00 42 1015.5
20260904122608 83 201 8.7 17.4 0.00 0.00 0.00 41 1015.6
20260904122601 83 186 8.7 17.4 0.00 0.00 0.00 41 1015.6
20260904122504 83 217 8.7 17.4 0.00 0.00 0.00 42 1015.6
20260904122404 83 277 8.7 17.4 0.00 0.00 0.00 43 1015.6
20260904122325 83 228 9.6 17.4 0.00 0.00 0.00 43 1015.6
20260904122321 83 236 9.6 17.4 0.00 0.00 0.00 43 1015.6
20260904122317 83 244 9.6 17.4 0.00 0.00 0.00 43 1015.6
20260904122313 83 242 9.6 17.4 0.00 0.00 0.00 43 1015.6
20260904122002 83 257 9.6 17.4 0.00 0.00 0.00 43 1015.6
20260904121902 83 289 9.6 17.4 0.00 0.00 0.00 43 1015.7
20260904121826 83 266 8.7 17.4 0.00 0.00 0.00 42 1015.7
20260904121821 83 216 8.7 17.4 0.00 0.00 0.00 43 1015.7
20260904121817 83 276 8.7 17.4 0.00 0.00 0.00 42 1015.8
20260904121812 83 270 8.7 17.4 0.00 0.00 0.00 42 1015.7
20260904121502 83 258 8.7 15.6 0.00 0.00 0.00 42 1015.7
20260904121402 83 207 7.8 16.5 0.00 0.00 0.00 42 1015.7
20260904121301 83 286 7.8 16.5 0.00 0.00 0.00 42 1016.0
20260904121202 83 277 7.8 16.5 0.00 0.00 0.00 43 1015.7
20260904121101 83 13 7.8 16.5 0.00 0.00 0.00 42 1015.8
20260904121001 83 235 8.7 16.5 0.00 0.00 0.00 43 1015.7
20260904120901 83 231 8.7 16.5 0.00 0.00 0.00 42 1015.8
20260904120802 82 194 8.7 16.5 0.00 0.00 0.00 41 1015.8
20260904120701 82 226 9.6 16.5 0.00 0.00 0.00 41 1016.0
20260904120601 82 186 9.6 16.5 0.00 0.00 0.00 42 1016.0
20260904120501 82 210 9.6 16.5 0.00 0.00 0.00 43 1016.0
20260904120401 82 192 9.6 15.6 0.00 0.00 0.00 42 1016.0
20260904120301 82 262 9.6 15.6 0.00 0.00 0.00 42 1016.0
20260904120201 82 294 9.6 15.6 0.00 0.00 0.00 42 1016.0
20260904120109 82 244 7.8 15.6 0.00 0.00 0.00 42 1016.0
20260904120101 82 269 8.7 15.6 0.00 0.00 0.00 41 1016.1
20260904120049 82 259 8.7 15.6 0.00 0.00 0.00 42 1016.1
20260904120041 82 265 7.8 15.6 0.00 0.00 0.00 42 1016.1
20260904115820 82 263 7.8 15.6 0.00 0.00 0.00 42 1016.0
20260904115816 82 247 7.8 15.6 0.00 0.00 0.00 43 1016.1
20260904115812 82 244 7.8 15.6 0.00 0.00 0.00 42 1016.0
20260904115501 82 261 7.8 15.6 0.00 0.00 0.00 43 1016.0
20260904115401 82 268 8.7 15.6 0.00 0.00 0.00 42 1016.0
20260904115319 82 198 8.7 18.2 0.00 0.00 0.00 42 1016.0
20260904115315 82 265 9.6 18.2 0.00 0.00 0.00 42 1016.0
20260904115311 82 261 9.6 18.2 0.00 0.00 0.00 43 1016.1
20260904115000 82 298 9.6 18.2 0.00 0.00 0.00 42 1016.0
20260904114900 82 224 9.6 18.2 0.00 0.00 0.00 42 1016.1
20260904114800 82 223 8.7 18.2 0.00 0.00 0.00 42 1016.1
20260904114700 82 202 8.7 18.2 0.00 0.00 0.00 42 1016.1
20260904114601 82 192 9.6 18.2 0.00 0.00 0.00 41 1016.1
20260904114501 82 219 8.7 18.2 0.00 0.00 0.00 42 1016.1
20260904114401 82 220 8.7 18.2 0.00 0.00 0.00 43 1016.1
20260904114301 82 227 7.8 17.4 0.00 0.00 0.00 43 1016.1
20260904114201 82 236 7.8 16.5 0.00 0.00 0.00 44 1016.1
20260904114101 82 216 8.7 13.9 0.00 0.00 0.00 43 1016.1
20260904114001 82 263 7.8 13.9 0.00 0.00 0.00 42 1016.2
20260904113901 82 228 8.7 13.9 0.00 0.00 0.00 43 1016.1
20260904113801 82 255 8.7 13.9 0.00 0.00 0.00 42 1016.2
20260904113701 82 271 8.7 15.6 0.00 0.00 0.00 42 1016.2
20260904113601 82 221 8.7 16.5 0.00 0.00 0.00 44 1016.2
20260904113501 81 225 8.7 16.5 0.00 0.00 0.00 43 1016.2
20260904113401 81 207 8.7 16.5 0.00 0.00 0.00 44 1016.2
20260904113301 81 262 8.7 16.5 0.00 0.00 0.00 44 1016.2
20260904113201 81 265 9.6 16.5 0.00 0.00 0.00 43 1016.2
20260904113101 81 278 8.7 16.5 0.00 0.00 0.00 43 1016.2
20260904112956 81 226 8.7 16.5 0.00 0.00 0.00 44 1016.2
20260904112856 81 242 8.7 16.5 0.00 0.00 0.00 44 1016.2
20260904112756 81 239 8.7 16.5 0.00 0.00 0.00 44 1016.3
20260904112656 81 259 8.7 16.5 0.00 0.00 0.00 43 1016.3
20260904112603 81 251 8.7 15.6 0.00 0.00 0.00 44 1016.4
20260904112556 81 271 8.7 15.6 0.00 0.00 0.00 44 1016.4
20260904112453 81 275 8.7 15.6 0.00 0.00 0.00 44 1016.4
20260904112353 81 240 8.7 15.6 0.00 0.00 0.00 44 1016.4
20260904112253 81 237 8.7 15.6 0.00 0.00 0.00 43 1016.4
20260904112154 81 235 9.6 15.6 0.00 0.00 0.00 44 1016.4
20260904112100 81 221 9.6 15.6 0.00 0.00 0.00 44 1016.5
20260904112054 81 264 9.6 15.6 0.00 0.00 0.00 44 1016.5
20260904111954 81 238 9.6 15.6 0.00 0.00 0.00 43 1016.4
20260904111853 81 265 9.6 15.6 0.00 0.00 0.00 43 1016.4
20260904111825 81 236 8.7 15.6 0.00 0.00 0.00 44 1016.7
20260904111818 81 196 9.6 15.6 0.00 0.00 0.00 43 1016.5
20260904111813 81 269 8.7 15.6 0.00 0.00 0.00 43 1016.5
20260904111554 81 259 8.7 15.6 0.00 0.00 0.00 44 1016.7
20260904111454 81 279 7.8 15.6 0.00 0.00 0.00 44 1016.5
20260904111354 81 227 7.0 14.8 0.00 0.00 0.00 44 1016.5
20260904111331 81 292 7.0 14.8 0.00 0.00 0.00 44 1016.7
20260904111316 81 255 7.0 14.8 0.00 0.00 0.00 43 1016.5
20260904111312 81 284 7.0 14.8 0.00 0.00 0.00 44 1016.6
20260904111053 81 210 7.0 14.8 0.00 0.00 0.00 44 1016.7
20260904110953 81 281 6.1 14.8 0.00 0.00 0.00 44 1016.6
20260904110854 81 269 6.1 13.0 0.00 0.00 0.00 45 1016.7
20260904110747 81 257 7.0 13.9 0.00 0.00 0.00 44 1016.6
20260904110647 81 257 7.8 13.9 0.00 0.00 0.00 45 1016.7
20260904110600 81 205 7.8 15.6 0.00 0.00 0.00 44 1016.7
20260904110547 81 222 7.8 15.6 0.00 0.00 0.00 44 1016.7
20260904110447 81 208 8.7 15.6 0.00 0.00 0.00 45 1016.8
20260904110347 80 234 8.7 15.6 0.00 0.00 0.00 45 1016.8
20260904110241 80 278 7.8 15.6 0.00 0.00 0.00 44 1016.8
20260904110142 80 263 7.8 15.6 0.00 0.00 0.00 45 1016.7
20260904110101 80 231 7.8 15.6 0.00 0.00 0.00 44 1016.8
20260904110054 80 240 7.8 14.8 0.00 0.00 0.00 45 1017.0
20260904110049 80 271 7.8 15.6 0.00 0.00 0.00 44 1016.8
20260904110045 80 254 8.7 15.6 0.00 0.00 0.00 44 1016.8
20260904110037 81 262 8.7 15.6 0.00 0.00 0.00 44 1016.8
20260904105816 80 235 7.8 15.6 0.00 0.00 0.00 45 1016.8
20260904105811 80 246 7.8 15.6 0.00 0.00 0.00 45 1016.8
20260904105534 80 233 7.8 14.8 0.00 0.00 0.00 45 1017.0
20260904105434 80 192 7.8 14.8 0.00 0.00 0.00 46 1016.9
20260904105334 80 247 7.0 14.8 0.00 0.00 0.00 45 1016.8
20260904105321 80 264 7.0 14.8 0.00 0.00 0.00 45 1017.0
20260904105316 80 282 7.0 14.8 0.00 0.00 0.00 46 1016.8
20260904105312 80 248 7.0 14.8 0.00 0.00 0.00 45 1017.0
20260904105030 80 279 7.0 14.8 0.00 0.00 0.00 46 1017.0
20260904104929 80 280 6.1 14.8 0.00 0.00 0.00 46 1017.0
20260904104829 80 235 6.1 13.0 0.00 0.00 0.00 46 1017.1
20260904104729 79 288 6.1 13.0 0.00 0.00 0.00 46 1017.1
20260904104629 79 285 6.1 13.0 0.00 0.00 0.00 48 1017.1
20260904104602 79 268 5.2 11.3 0.00 0.00 0.00 48 1017.1
20260904104529 79 229 5.2 11.3 0.00 0.00 0.00 47 1017.1
20260904104429 79 283 6.1 11.3 0.00 0.00 0.00 46 1017.1
20260904104329 79 261 6.1 11.3 0.00 0.00 0.00 46 1017.1
20260904104229 79 277 7.0 13.0 0.00 0.00 0.00 49 1017.2
20260904104129 79 202 7.0 13.0 0.00 0.00 0.00 46 1017.2
20260904104101 79 213 7.0 13.0 0.00 0.00 0.00 46 1017.2
20260904104029 79 229 7.0 13.0 0.00 0.00 0.00 46 1017.2
20260904103929 79 219 7.0 14.8 0.00 0.00 0.00 47 1017.2
20260904103833 79 223 7.8 14.8 0.00 0.00 0.00 46 1017.3
20260904103829 79 258 7.8 14.8 0.00 0.00 0.00 46 1017.2
20260904103817 79 205 7.8 14.8 0.00 0.00 0.00 47 1017.2
20260904103813 79 207 7.8 14.8 0.00 0.00 0.00 46 1017.3
20260904103529 79 259 7.8 14.8 0.00 0.00 0.00 46 1017.3
20260904103428 79 259 7.8 14.8 0.00 0.00 0.00 47 1017.3
20260904103329 79 255 7.8 14.8 0.00 0.00 0.00 47 1017.4
20260904103325 79 273 7.8 14.8 0.00 0.00 0.00 48 1017.4
20260904103316 79 270 7.8 14.8 0.00 0.00 0.00 48 1017.3
20260904103312 79 249 7.8 14.8 0.00 0.00 0.00 47 1017.4
20260904103029 79 248 7.8 14.8 0.00 0.00 0.00 48 1017.4
20260904102929 79 248 7.8 14.8 0.00 0.00 0.00 47 1017.4
20260904102829 79 211 7.0 14.8 0.00 0.00 0.00 47 1017.4
20260904102729 79 274 7.0 14.8 0.00 0.00 0.00 47 1017.3
20260904102629 79 225 7.0 14.8 0.00 0.00 0.00 47 1017.5
20260904102600 79 210 7.0 14.8 0.00 0.00 0.00 48 1017.4
20260904102528 79 238 7.0 14.8 0.00 0.00 0.00 48 1017.4
20260904102429 79 241 6.1 14.8 0.00 0.00 0.00 48 1017.4
20260904102322 78 206 6.1 14.8 0.00 0.00 0.00 49 1017.5
20260904102223 78 245 5.2 12.2 0.00 0.00 0.00 49 1017.4
20260904102122 78 190 5.2 12.2 0.00 0.00 0.00 48 1017.4
20260904102100 78 241 5.2 12.2 0.00 0.00 0.00 48 1017.4
20260904102021 78 235 6.1 12.2 0.00 0.00 0.00 47 1017.4
20260904101921 78 238 6.1 12.2 0.00 0.00 0.00 48 1017.5
20260904101821 78 228 6.1 12.2 0.00 0.00 0.00 49 1017.5
20260904101817 78 245 6.1 12.2 0.00 0.00 0.00 49 1017.4
20260904101813 78 265 6.1 12.2 0.00 0.00 0.00 49 1017.5
20260904101522 78 258 6.1 12.2 0.00 0.00 0.00 48 1017.5
20260904101422 78 232 6.1 13.0 0.00 0.00 0.00 48 1017.6
20260904101322 78 214 6.1 13.0 0.00 0.00 0.00 48 1017.5
20260904101222 78 207 6.1 13.0 0.00 0.00 0.00 48 1017.6
20260904101118 78 236 6.1 13.0 0.00 0.00 0.00 49 1017.6
20260904101101 78 230 6.1 13.0 0.00 0.00 0.00 49 1017.6
20260904101017 78 208 6.1 13.0 0.00 0.00 0.00 49 1017.8
20260904100917 78 200 6.1 13.0 0.00 0.00 0.00 49 1017.6
20260904100817 78 278 6.1 13.0 0.00 0.00 0.00 48 1017.8
20260904100717 78 197 5.2 13.0 0.00 0.00 0.00 47 1017.8
20260904100618 78 227 5.2 13.0 0.00 0.00 0.00 48 1017.8
20260904100601 78 205 5.2 13.0 0.00 0.00 0.00 48 1017.8
20260904100518 78 257 5.2 13.0 0.00 0.00 0.00 48 1017.8
20260904100418 78 196 5.2 12.2 0.00 0.00 0.00 48 1017.8
20260904100318 78 264 5.2 12.2 0.00 0.00 0.00 50 1017.9
20260904100218 78 207 5.2 10.4 0.00 0.00 0.00 48 1017.8
20260904100118 78 282 5.2 12.2 0.00 0.00 0.00 49 1017.8
20260904100100 78 215 5.2 12.2 0.00 0.00 0.00 49 1017.8
20260904100017 78 237 6.1 12.2 0.00 0.00 0.00 50 1017.9
20260904095918 77 262 6.1 12.2 0.00 0.00 0.00 49 1017.8
20260904095818 77 279 6.1 12.2 0.00 0.00 0.00 51 1017.9
20260904095717 77 273 6.1 12.2 0.00 0.00 0.00 51 1017.9
20260904095617 77 249 6.1 12.2 0.00 0.00 0.00 51 1017.9
20260904095600 77 234 6.1 12.2 0.00 0.00 0.00 51 1017.9
20260904095555 77 199 7.0 11.3 0.00 0.00 0.00 48 1018.1
20260904095544 77 252 6.1 12.2 0.00 0.00 0.00 51 1017.9
20260904095539 77 326 7.0 12.2 0.00 0.00 0.00 50 1018.0
20260904095320 77 217 7.0 12.2 0.00 0.00 0.00 50 1018.0
20260904095316 77 228 7.0 12.2 0.00 0.00 0.00 49 1018.0
20260904095312 77 198 7.0 11.3 0.00 0.00 0.00 48 1018.1
20260904095014 77 217 7.0 12.2 0.00 0.00 0.00 48 1018.0
20260904094912 77 235 7.0 12.2 0.00 0.00 0.00 49 1018.1
20260904094811 77 252 7.0 12.2 0.00 0.00 0.00 50 1018.0
20260904094712 77 213 7.0 12.2 0.00 0.00 0.00 49 1018.0
20260904094612 77 257 7.0 12.2 0.00 0.00 0.00 50 1018.1
20260904094602 77 204 7.0 12.2 0.00 0.00 0.00 50 1018.1
20260904094512 77 204 6.1 12.2 0.00 0.00 0.00 49 1018.1
20260904094412 77 217 6.1 12.2 0.00 0.00 0.00 49 1018.0
20260904094312 77 202 6.1 12.2 0.00 0.00 0.00 50 1018.1
20260904094211 77 238 6.1 12.2 0.00 0.00 0.00 50 1018.1
20260904094111 77 229 5.2 12.2 0.00 0.00 0.00 50 1018.1
20260904094059 77 246 5.2 12.2 0.00 0.00 0.00 50 1018.1
20260904094007 77 214 5.2 10.4 0.00 0.00 0.00 51 1018.2
20260904093907 77 251 5.2 10.4 0.00 0.00 0.00 51 1018.1
20260904093808 76 292 5.2 10.4 0.00 0.00 0.00 52 1018.0
20260904093708 76 267 5.2 8.7 0.00 0.00 0.00 52 1018.2
20260904093608 76 301 5.2 8.7 0.00 0.00 0.00 51 1018.2
20260904093559 76 273 5.2 8.7 0.00 0.00 0.00 51 1018.2
20260904093507 76 250 6.1 10.4 0.00 0.00 0.00 51 1018.2
20260904093407 76 240 6.1 10.4 0.00 0.00 0.00 51 1018.2
20260904093307 76 284 6.1 10.4 0.00 0.00 0.00 52 1018.2
20260904093207 76 202 6.1 10.4 0.00 0.00 0.00 52 1018.3
20260904093107 76 196 6.1 10.4 0.00 0.00 0.00 52 1018.2
20260904093100 76 240 6.1 10.4 0.00 0.00 0.00 52 1018.2
20260904093008 76 244 6.1 10.4 0.00 0.00 0.00 52 1018.3
20260904092908 76 246 6.1 10.4 0.00 0.00 0.00 52 1018.2
20260904092829 76 222 6.1 11.3 0.00 0.00 0.00 51 1018.3
20260904092821 76 275 6.1 11.3 0.00 0.00 0.00 51 1018.2
20260904092817 76 268 6.1 11.3 0.00 0.00 0.00 51 1018.3
20260904092813 76 206 6.1 11.3 0.00 0.00 0.00 51 1018.3
20260904092508 76 192 6.1 11.3 0.00 0.00 0.00 52 1018.4
20260904092408 76 237 6.1 11.3 0.00 0.00 0.00 53 1018.3
20260904092312 76 257 6.1 11.3 0.00 0.00 0.00 53 1018.3
20260904092208 76 270 5.2 11.3 0.00 0.00 0.00 53 1018.3
20260904092104 76 277 5.2 11.3 0.00 0.00 0.00 52 1018.3
20260904092059 76 288 5.2 11.3 0.00 0.00 0.00 52 1018.3
20260904092001 76 215 5.2 11.3 0.00 0.00 0.00 51 1018.4
20260904091901 76 239 5.2 11.3 0.00 0.00 0.00 51 1018.3
20260904091827 75 226 5.2 10.4 0.00 0.00 0.00 51 1018.4
20260904091820 76 200 5.2 9.6 0.00 0.00 0.00 51 1018.4
20260904091815 75 192 5.2 10.4 0.00 0.00 0.00 51 1018.4
20260904091811 75 226 5.2 10.4 0.00 0.00 0.00 51 1018.4
20260904091551 75 226 5.2 10.4 0.00 0.00 0.00 55 1018.5
20260904091543 75 211 5.2 10.4 0.00 0.00 0.00 54 1018.4
20260904091540 75 222 5.2 10.4 0.00 0.00 0.00 53 1018.4
20260904091320 75 258 5.2 10.4 0.00 0.00 0.00 54 1018.5
20260904091316 75 250 5.2 10.4 0.00 0.00 0.00 54 1018.5
20260904091312 75 226 5.2 10.4 0.00 0.00 0.00 55 1018.5
20260904091001 75 273 5.2 12.2 0.00 0.00 0.00 53 1018.5
20260904090902 75 292 5.2 13.0 0.00 0.00 0.00 54 1018.5
20260904090801 75 268 5.2 13.0 0.00 0.00 0.00 54 1018.5
20260904090700 75 221 5.2 13.0 0.00 0.00 0.00 53 1018.6
20260904090603 75 212 5.2 13.0 0.00 0.00 0.00 54 1018.5
20260904090559 75 212 5.2 13.0 0.00 0.00 0.00 54 1018.5
20260904090502 75 257 5.2 13.0 0.00 0.00 0.00 53 1018.6
20260904090401 74 226 6.1 13.0 0.00 0.00 0.00 52 1018.5
20260904090304 74 228 6.1 13.0 0.00 0.00 0.00 53 1018.6
20260904090200 74 215 6.1 13.0 0.00 0.00 0.00 53 1018.6
20260904090103 74 217 5.2 13.0 0.00 0.00 0.00 53 1018.6
20260904090059 74 217 5.2 13.0 0.00 0.00 0.00 53 1018.6
20260904090000 74 237 5.2 13.0 0.00 0.00 0.00 53 1018.6
20260904085901 74 229 5.2 10.4 0.00 0.00 0.00 54 1018.5
20260904085829 74 217 5.2 10.4 0.00 0.00 0.00 54 1018.5
20260904085822 74 212 5.2 10.4 0.00 0.00 0.00 53 1018.6
20260904085815 74 230 5.2 10.4 0.00 0.00 0.00 53 1018.6
20260904085811 74 217 5.2 10.4 0.00 0.00 0.00 54 1018.5
20260904085501 74 258 5.2 10.4 0.00 0.00 0.00 54 1018.5
20260904085401 74 217 5.2 8.7 0.00 0.00 0.00 54 1018.5
20260904085301 74 223 4.3 8.7 0.00 0.00 0.00 54 1018.6
20260904085201 74 196 5.2 10.4 0.00 0.00 0.00 54 1018.6
20260904085104 74 237 5.2 10.4 0.00 0.00 0.00 55 1018.6
20260904085100 74 237 5.2 10.4 0.00 0.00 0.00 55 1018.6
20260904085001 74 235 5.2 10.4 0.00 0.00 0.00 54 1018.6
20260904084901 74 232 5.2 10.4 0.00 0.00 0.00 55 1018.5
20260904084801 74 221 5.2 10.4 0.00 0.00 0.00 54 1018.6
20260904084701 74 266 5.2 10.4 0.00 0.00 0.00 55 1018.6
20260904084601 74 232 5.2 10.4 0.00 0.00 0.00 55 1018.6
20260904084557 74 232 5.2 10.4 0.00 0.00 0.00 55 1018.6
20260904084501 74 236 5.2 10.4 0.00 0.00 0.00 54 1018.6
20260904084401 74 225 6.1 10.4 0.00 0.00 0.00 54 1018.6
20260904084301 74 225 6.1 10.4 0.00 0.00 0.00 54 1018.6
20260904084201 74 227 6.1 9.6 0.00 0.00 0.00 55 1018.6
20260904084102 74 272 6.1 8.7 0.00 0.00 0.00 54 1018.6
20260904084058 74 272 6.1 8.7 0.00 0.00 0.00 54 1018.6
20260904084000 74 251 5.2 8.7 0.00 0.00 0.00 55 1018.6
20260904083900 73 259 6.1 9.6 0.00 0.00 0.00 55 1018.7
20260904083801 73 233 6.1 9.6 0.00 0.00 0.00 55 1018.6
20260904083701 73 246 6.1 10.4 0.00 0.00 0.00 55 1018.6
20260904083603 73 257 6.1 11.3 0.00 0.00 0.00 55 1018.7
20260904083558 73 257 6.1 11.3 0.00 0.00 0.00 55 1018.7
20260904083501 73 273 6.1 11.3 0.00 0.00 0.00 55 1018.7
20260904083402 73 265 6.1 11.3 0.00 0.00 0.00 56 1018.7
20260904083326 73 257 6.1 11.3 0.00 0.00 0.00 55 1018.7
20260904083319 73 269 6.1 11.3 0.00 0.00 0.00 56 1018.7
20260904083312 73 227 6.1 11.3 0.00 0.00 0.00 55 1018.7
20260904083307 73 248 6.1 11.3 0.00 0.00 0.00 55 1018.7
20260904083001 73 271 6.1 11.3 0.00 0.00 0.00 55 1018.7
20260904082901 73 234 6.1 11.3 0.00 0.00 0.00 54 1018.7
20260904082801 73 275 6.1 11.3 0.00 0.00 0.00 55 1018.8
20260904082701 73 260 6.1 11.3 0.00 0.00 0.00 55 1018.7
20260904082601 73 310 5.2 9.6 0.00 0.00 0.00 55 1018.8
20260904082556 73 259 5.2 9.6 0.00 0.00 0.00 55 1018.8
20260904082501 73 268 5.2 9.6 0.00 0.00 0.00 56 1018.8
20260904082400 73 252 5.2 9.6 0.00 0.00 0.00 56 1018.8
20260904082300 73 274 5.2 9.6 0.00 0.00 0.00 57 1018.8
20260904082200 73 245 5.2 10.4 0.00 0.00 0.00 57 1018.8
20260904082101 73 264 5.2 10.4 0.00 0.00 0.00 56 1018.8
20260904082053 73 263 5.2 10.4 0.00 0.00 0.00 56 1018.8
20260904082001 73 253 5.2 10.4 0.00 0.00 0.00 56 1018.8
20260904081901 73 266 5.2 10.4 0.00 0.00 0.00 56 1018.8
20260904081801 73 259 5.2 10.4 0.00 0.00 0.00 57 1018.8
20260904081701 72 211 6.1 10.4 0.00 0.00 0.00 56 1018.8
20260904081601 72 268 7.0 10.4 0.00 0.00 0.00 56 1018.8
20260904081552 72 266 7.0 10.4 0.00 0.00 0.00 56 1018.8
20260904081501 72 273 7.0 10.4 0.00 0.00 0.00 55 1018.8
20260904081401 72 292 7.0 10.4 0.00 0.00 0.00 56 1018.8
20260904081301 72 253 7.0 10.4 0.00 0.00 0.00 56 1018.8
20260904081201 72 263 7.0 11.3 0.00 0.00 0.00 56 1018.9
20260904081101 72 284 7.0 12.2 0.00 0.00 0.00 56 1018.8
20260904081050 72 269 7.0 12.2 0.00 0.00 0.00 56 1018.8
20260904081000 72 229 7.0 12.2 0.00 0.00 0.00 55 1018.8
20260904080901 72 259 6.1 12.2 0.00 0.00 0.00 55 1018.8
20260904080801 72 298 6.1 12.2 0.00 0.00 0.00 56 1018.8
20260904080700 72 232 6.1 12.2 0.00 0.00 0.00 56 1018.8
20260904080601 72 265 5.2 12.2 0.00 0.00 0.00 57 1018.9
20260904080547 72 244 5.2 12.2 0.00 0.00 0.00 57 1018.9
20260904080501 72 265 5.2 12.2 0.00 0.00 0.00 56 1018.8
20260904080401 72 279 5.2 12.2 0.00 0.00 0.00 57 1018.8
20260904080301 72 247 5.2 12.2 0.00 0.00 0.00 57 1018.8
20260904080200 72 277 4.3 12.2 0.00 0.00 0.00 57 1018.9
20260904080101 72 249 4.3 12.2 0.00 0.00 0.00 58 1018.8
20260904080046 72 254 4.3 12.2 0.00 0.00 0.00 57 1018.8
20260904080001 72 269 5.2 8.7 0.00 0.00 0.00 56 1018.8
20260904075901 72 252 5.2 11.3 0.00 0.00 0.00 57 1018.8
20260904075801 72 237 5.2 11.3 0.00 0.00 0.00 57 1018.8
20260904075658 71 221 5.2 11.3 0.00 0.00 0.00 57 1018.9
20260904075556 71 233 5.2 11.3 0.00 0.00 0.00 58 1018.9
20260904075545 71 241 5.2 11.3 0.00 0.00 0.00 57 1018.9
20260904075455 71 217 5.2 11.3 0.00 0.00 0.00 57 1018.8
20260904075355 71 234 5.2 11.3 0.00 0.00 0.00 57 1018.9
20260904075255 71 221 5.2 11.3 0.00 0.00 0.00 57 1018.9
20260904075151 71 265 5.2 11.3 0.00 0.00 0.00 57 1018.9
20260904075051 71 216 5.2 11.3 0.00 0.00 0.00 58 1018.9
20260904075046 71 208 5.2 11.3 0.00 0.00 0.00 58 1018.9
20260904074952 71 284 5.2 11.3 0.00 0.00 0.00 58 1018.9
20260904074852 71 221 6.1 9.6 0.00 0.00 0.00 58 1018.9
20260904074751 71 244 6.1 9.6 0.00 0.00 0.00 58 1018.9
20260904074649 71 225 6.1 9.6 0.00 0.00 0.00 58 1018.9
20260904074549 71 223 6.1 9.6 0.00 0.00 0.00 58 1018.9
20260904074545 71 215 6.1 9.6 0.00 0.00 0.00 58 1018.9
20260904074449 71 223 6.1 9.6 0.00 0.00 0.00 58 1018.9
20260904074347 71 211 6.1 9.6 0.00 0.00 0.00 58 1018.9
20260904074245 71 224 6.1 9.6 0.00 0.00 0.00 59 1019.0
20260904074145 71 240 6.1 9.6 0.00 0.00 0.00 59 1019.0
20260904074048 70 225 6.1 9.6 0.00 0.00 0.00 59 1019.0
20260904074044 70 253 6.1 9.6 0.00 0.00 0.00 59 1019.0
20260904073946 70 236 5.2 9.6 0.00 0.00 0.00 59 1019.0
20260904073845 70 238 5.2 9.6 0.00 0.00 0.00 59 1019.0
20260904073745 70 235 5.2 9.6 0.00 0.00 0.00 60 1019.0
20260904073644 70 225 5.2 9.6 0.00 0.00 0.00 60 1019.0
20260904073543 70 249 5.2 9.6 0.00 0.00 0.00 60 1019.0
20260904073443 70 276 5.2 9.6 0.00 0.00 0.00 60 1019.0
20260904073343 70 244 5.2 9.6 0.00 0.00 0.00 60 1019.0
20260904073243 70 250 4.3 8.7 0.00 0.00 0.00 61 1019.0
20260904073143 70 231 4.3 8.7 0.00 0.00 0.00 61 1019.0
20260904073043 70 220 4.3 8.7 0.00 0.00 0.00 60 1019.0
20260904072939 70 227 4.3 8.7 0.00 0.00 0.00 61 1019.0
20260904072838 70 219 5.2 8.7 0.00 0.00 0.00 60 1019.0
20260904072738 69 221 5.2 9.6 0.00 0.00 0.00 61 1019.1
20260904072637 69 215 5.2 9.6 0.00 0.00 0.00 62 1019.2
20260904072536 69 217 5.2 9.6 0.00 0.00 0.00 62 1019.1
20260904072433 69 222 4.3 9.6 0.00 0.00 0.00 62 1019.1
20260904072331 69 206 4.3 9.6 0.00 0.00 0.00 61 1019.1
20260904072231 69 194 4.3 9.6 0.00 0.00 0.00 61 1019.1
20260904072129 69 210 4.3 9.6 0.00 0.00 0.00 61 1019.1
20260904072029 69 221 4.3 9.6 0.00 0.00 0.00 62 1019.1
20260904072022 69 238 4.3 7.8 0.00 0.00 0.00 62 1019.0
20260904072015 69 236 4.3 9.6 0.00 0.00 0.00 62 1019.1
20260904072011 69 246 4.3 9.6 0.00 0.00 0.00 62 1019.1
20260904071753 69 228 4.3 9.6 0.00 0.00 0.00 63 1019.0
20260904071745 69 227 4.3 7.8 0.00 0.00 0.00 62 1019.1
20260904071741 69 238 4.3 7.8 0.00 0.00 0.00 62 1019.0
20260904071429 68 223 4.3 7.8 0.00 0.00 0.00 62 1019.1
20260904071329 68 213 4.3 7.8 0.00 0.00 0.00 64 1019.1
20260904071229 68 214 4.3 7.8 0.00 0.00 0.00 63 1019.0
20260904071129 68 232 4.3 7.8 0.00 0.00 0.00 64 1019.1
20260904071029 68 268 4.3 7.8 0.00 0.00 0.00 63 1019.1
20260904070929 68 236 4.3 7.0 0.00 0.00 0.00 63 1019.1
20260904070829 68 232 3.5 7.0 0.00 0.00 0.00 63 1019.2
20260904070729 68 235 3.5 7.0 0.00 0.00 0.00 63 1019.1
20260904070629 68 200 3.5 7.0 0.00 0.00 0.00 62 1019.1
20260904070529 68 220 3.5 7.0 0.00 0.00 0.00 63 1019.1
20260904070428 67 213 3.5 7.0 0.00 0.00 0.00 64 1019.1
20260904070328 67 221 3.5 7.0 0.00 0.00 0.00 64 1019.2
20260904070229 67 213 3.5 6.1 0.00 0.00 0.00 65 1019.2
20260904070129 67 252 3.5 6.1 0.00 0.00 0.00 65 1019.2
20260904070028 67 284 3.5 5.2 0.00 0.00 0.00 65 1019.1
20260904065929 67 263 2.6 5.2 0.00 0.00 0.00 66 1019.1
20260904065829 67 238 2.6 5.2 0.00 0.00 0.00 65 1019.2
20260904065729 67 215 2.6 6.1 0.00 0.00 0.00 65 1019.2
20260904065628 67 226 2.6 6.1 0.00 0.00 0.00 66 1019.2
20260904065529 67 221 2.6 6.1 0.00 0.00 0.00 66 1019.2
20260904065429 67 268 2.6 6.1 0.00 0.00 0.00 66 1019.3
20260904065329 66 227 2.6 7.0 0.00 0.00 0.00 66 1019.2
20260904065229 66 223 2.6 7.0 0.00 0.00 0.00 65 1019.2
20260904065129 66 232 3.5 7.0 0.00 0.00 0.00 66 1019.2
20260904065030 66 204 2.6 7.0 0.00 0.00 0.00 66 1019.2
20260904064929 66 239 2.6 7.0 0.00 0.00 0.00 67 1019.2
20260904064829 66 227 2.6 7.0 0.00 0.00 0.00 66 1019.2
20260904064729 65 271 2.6 7.0 0.00 0.00 0.00 67 1019.2
20260904064633 65 232 2.6 7.0 0.00 0.00 0.00 68 1019.2
20260904064529 65 234 3.5 8.7 0.00 0.00 0.00 68 1019.2
20260904064429 65 254 2.6 8.7 0.00 0.00 0.00 68 1019.2
20260904064330 65 201 2.6 8.7 0.00 0.00 0.00 69 1019.2
20260904064229 65 201 2.6 8.7 0.00 0.00 0.00 69 1019.2
20260904064129 65 235 2.6 8.7 0.00 0.00 0.00 69 1019.1
20260904064030 65 254 2.6 8.7 0.00 0.00 0.00 69 1019.1
20260904063929 64 261 2.6 8.7 0.00 0.00 0.00 69 1019.1
20260904063829 64 233 2.6 8.7 0.00 0.00 0.00 69 1019.2
20260904063729 64 255 2.6 8.7 0.00 0.00 0.00 70 1019.1
20260904063629 64 243 2.6 8.7 0.00 0.00 0.00 70 1019.2
20260904063529 64 246 1.7 4.3 0.00 0.00 0.00 70 1019.2
20260904063429 64 238 1.7 4.3 0.00 0.00 0.00 70 1019.1
20260904063329 64 237 1.7 4.3 0.00 0.00 0.00 71 1019.1
20260904063229 64 211 1.7 4.3 0.00 0.00 0.00 70 1019.1
20260904063128 63 200 1.7 4.3 0.00 0.00 0.00 70 1019.1
20260904063029 63 199 1.7 4.3 0.00 0.00 0.00 71 1019.1
20260904062928 63 213 1.7 4.3 0.00 0.00 0.00 72 1019.1
20260904062828 63 213 1.7 4.3 0.00 0.00 0.00 72 1019.1
20260904062728 63 221 1.7 4.3 0.00 0.00 0.00 72 1019.1
20260904062628 63 206 1.7 4.3 0.00 0.00 0.00 71 1019.1
20260904062527 63 205 0.9 4.3 0.00 0.00 0.00 72 1019.1
20260904062425 63 205 0.9 4.3 0.00 0.00 0.00 73 1019.1
20260904062321 62 205 0.9 4.3 0.00 0.00 0.00 74 1019.1
20260904062219 62 231 0.9 2.6 0.00 0.00 0.00 74 1019.1
20260904062119 62 231 0.9 1.7 0.00 0.00 0.00 73 1019.1
20260904062019 62 169 0.9 3.5 0.00 0.00 0.00 73 1019.1
20260904061919 62 168 0.9 3.5 0.00 0.00 0.00 73 1019.0
20260904061813 62 168 0.9 3.5 0.00 0.00 0.00 74 1019.1
20260904061713 62 168 0.9 3.5 0.00 0.00 0.00 74 1019.0
20260904061613 62 168 0.9 3.5 0.00 0.00 0.00 74 1019.1
20260904061513 62 168 0.9 3.5 0.00 0.00 0.00 74 1019.1
20260904061413 62 168 0.9 3.5 0.00 0.00 0.00 74 1019.1
20260904061313 62 168 0.9 3.5 0.00 0.00 0.00 74 1019.1
20260904061211 62 168 0.9 3.5 0.00 0.00 0.00 75 1019.1
20260904061111 62 168 0.9 3.5 0.00 0.00 0.00 75 1019.0
20260904061030 62 168 0.9 3.5 0.00 0.00 0.00 76 1019.0
20260904061009 62 168 0.9 3.5 0.00 0.00 0.00 76 1019.1
20260904060909 62 168 0.9 3.5 0.00 0.00 0.00 76 1019.1
20260904060809 62 168 0.9 3.5 0.00 0.00 0.00 76 1019.1
20260904060709 62 168 0.9 3.5 0.00 0.00 0.00 76 1019.1
20260904060609 62 168 0.9 3.5 0.00 0.00 0.00 76 1019.1
20260904060529 62 168 0.9 3.5 0.00 0.00 0.00 76 1019.1
20260904060518 62 195 0.9 2.6 0.00 0.00 0.00 75 1019.0
20260904060513 62 168 0.9 3.5 0.00 0.00 0.00 76 1019.0
20260904060509 62 168 0.9 3.5 0.00 0.00 0.00 76 1019.0
20260904060505 62 168 0.9 3.5 0.00 0.00 0.00 76 1019.0
20260904060248 62 191 0.9 2.6 0.00 0.00 0.00 76 1019.0
20260904060243 62 195 0.9 2.6 0.00 0.00 0.00 76 1019.0
20260904060005 62 195 0.9 2.6 0.00 0.00 0.00 75 1019.0
20260904055905 62 195 0.9 2.6 0.00 0.00 0.00 75 1019.1
20260904055805 62 195 0.9 2.6 0.00 0.00 0.00 75 1019.0
20260904055705 62 195 0.0 2.6 0.00 0.00 0.00 76 1019.0
20260904055605 62 195 0.9 2.6 0.00 0.00 0.00 75 1019.0
20260904055532 62 195 0.9 2.6 0.00 0.00 0.00 75 1019.0
20260904055503 62 195 0.0 2.6 0.00 0.00 0.00 75 1019.0
20260904055403 62 205 0.0 1.7 0.00 0.00 0.00 75 1019.1
20260904055306 62 205 0.0 1.7 0.00 0.00 0.00 75 1019.1
20260904055201 62 205 0.0 1.7 0.00 0.00 0.00 75 1019.1
20260904055101 62 205 0.0 1.7 0.00 0.00 0.00 75 1019.1
20260904055001 62 205 0.0 0.9 0.00 0.00 0.00 75 1019.1
20260904054901 63 205 0.0 0.9 0.00 0.00 0.00 75 1019.1
20260904054801 63 205 0.0 0.9 0.00 0.00 0.00 74 1019.1
20260904054701 63 205 0.0 0.9 0.00 0.00 0.00 74 1019.1
20260904054601 63 205 0.0 0.9 0.00 0.00 0.00 74 1019.1
20260904054501 63 205 0.0 1.7 0.00 0.00 0.00 74 1019.1
20260904054401 63 205 0.0 1.7 0.00 0.00 0.00 74 1019.1
20260904054301 63 205 0.0 1.7 0.00 0.00 0.00 74 1019.2
20260904054201 63 205 0.0 1.7 0.00 0.00 0.00 73 1019.2
20260904054101 63 205 0.0 1.7 0.00 0.00 0.00 73 1019.2
20260904054001 63 205 0.0 1.7 0.00 0.00 0.00 73 1019.2
20260904053901 63 205 0.0 1.7 0.00 0.00 0.00 73 1019.1
20260904053801 63 205 0.0 1.7 0.00 0.00 0.00 73 1019.1
20260904053700 63 205 0.0 1.7 0.00 0.00 0.00 73 1019.2
20260904053600 63 205 0.0 1.7 0.00 0.00 0.00 73 1019.1
20260904053529 63 205 0.0 0.9 0.00 0.00 0.00 73 1019.1
20260904053500 63 205 0.0 0.9 0.00 0.00 0.00 73 1019.2
20260904053400 63 205 0.0 5.2 0.00 0.00 0.00 72 1019.2
20260904053300 63 205 0.0 5.2 0.00 0.00 0.00 72 1019.2
20260904053201 63 205 0.0 5.2 0.00 0.00 0.00 72 1019.2
20260904053101 64 205 0.0 5.2 0.00 0.00 0.00 72 1019.2
20260904053006 64 205 0.0 5.2 0.00 0.00 0.00 72 1019.2
20260904052900 64 205 0.0 5.2 0.00 0.00 0.00 71 1019.2
20260904052800 64 205 0.0 5.2 0.00 0.00 0.00 71 1019.3
20260904052700 64 205 0.9 5.2 0.00 0.00 0.00 71 1019.2
20260904052600 64 205 0.9 5.2 0.00 0.00 0.00 71 1019.2
20260904052528 64 205 0.9 5.2 0.00 0.00 0.00 71 1019.2
20260904052501 64 205 0.9 5.2 0.00 0.00 0.00 71 1019.3
20260904052400 64 205 0.9 5.2 0.00 0.00 0.00 71 1019.2
20260904052300 64 205 1.7 5.2 0.00 0.00 0.00 70 1019.3
20260904052253 64 205 1.7 5.2 0.00 0.00 0.00 70 1019.3
20260904052246 64 205 1.7 5.2 0.00 0.00 0.00 70 1019.3
20260904052242 64 205 1.7 5.2 0.00 0.00 0.00 70 1019.3
20260904052001 64 205 1.7 5.2 0.00 0.00 0.00 69 1019.3
20260904051901 64 205 2.6 5.2 0.00 0.00 0.00 69 1019.3
20260904051801 64 205 2.6 5.2 0.00 0.00 0.00 69 1019.3
20260904051701 64 205 2.6 5.2 0.00 0.00 0.00 69 1019.3
20260904051601 64 205 2.6 5.2 0.00 0.00 0.00 68 1019.3
20260904051535 64 207 2.6 5.2 0.00 0.00 0.00 67 1019.3
20260904051529 64 205 2.6 5.2 0.00 0.00 0.00 68 1019.3
20260904051525 64 205 2.6 5.2 0.00 0.00 0.00 67 1019.3
20260904051517 64 226 2.6 5.2 0.00 0.00 0.00 67 1019.2
20260904051301 64 228 2.6 5.2 0.00 0.00 0.00 67 1019.3
20260904051243 64 207 2.6 5.2 0.00 0.00 0.00 67 1019.3
20260904051239 64 207 2.6 5.2 0.00 0.00 0.00 67 1019.3
20260904051000 64 217 2.6 5.2 0.00 0.00 0.00 67 1019.3
20260904050900 64 221 2.6 5.2 0.00 0.00 0.00 67 1019.3
20260904050801 64 221 2.6 5.2 0.00 0.00 0.00 67 1019.3
20260904050701 64 225 2.6 5.2 0.00 0.00 0.00 67 1019.3
20260904050601 65 212 2.6 5.2 0.00 0.00 0.00 67 1019.3
20260904050528 64 213 2.6 5.2 0.00 0.00 0.00 67 1019.3
20260904050501 65 224 2.6 4.3 0.00 0.00 0.00 67 1019.3
20260904050401 65 224 2.6 4.3 0.00 0.00 0.00 67 1019.2
20260904050301 65 225 2.6 4.3 0.00 0.00 0.00 67 1019.3
20260904050201 65 210 2.6 4.3 0.00 0.00 0.00 67 1019.3
20260904050101 65 211 2.6 4.3 0.00 0.00 0.00 67 1019.3
20260904050029 65 208 2.6 4.3 0.00 0.00 0.00 66 1019.3
20260904050025 65 221 1.7 4.3 0.00 0.00 0.00 66 1019.2
20260904050020 65 210 1.7 4.3 0.00 0.00 0.00 66 1019.3
20260904050008 65 210 1.7 4.3 0.00 0.00 0.00 66 1019.3
20260904050004 65 210 1.7 4.3 0.00 0.00 0.00 66 1019.3
20260904045744 65 211 1.7 4.3 0.00 0.00 0.00 66 1019.3
20260904045741 65 221 1.7 4.3 0.00 0.00 0.00 66 1019.2
20260904045501 65 231 1.7 4.3 0.00 0.00 0.00 66 1019.3
20260904045400 65 232 1.7 4.3 0.00 0.00 0.00 67 1019.2
20260904045301 65 234 2.6 6.1 0.00 0.00 0.00 66 1019.3
20260904045201 65 234 2.6 6.1 0.00 0.00 0.00 66 1019.2
20260904045101 65 234 2.6 6.1 0.00 0.00 0.00 66 1019.2
20260904045029 65 228 2.6 6.1 0.00 0.00 0.00 66 1019.2
20260904045001 65 228 2.6 6.1 0.00 0.00 0.00 66 1019.1
20260904044901 65 228 2.6 6.1 0.00 0.00 0.00 66 1019.2
20260904044801 65 228 2.6 6.1 0.00 0.00 0.00 66 1019.2
20260904044750 65 216 2.6 6.1 0.00 0.00 0.00 66 1019.2
20260904044744 65 215 2.6 6.1 0.00 0.00 0.00 66 1019.1
20260904044741 65 216 2.6 6.1 0.00 0.00 0.00 66 1019.2
20260904044501 65 217 2.6 6.1 0.00 0.00 0.00 66 1019.2
20260904044401 65 211 2.6 6.1 0.00 0.00 0.00 66 1019.2
20260904044301 65 226 2.6 6.1 0.00 0.00 0.00 66 1019.2
20260904044201 65 214 2.6 6.1 0.00 0.00 0.00 66 1019.2
20260904044101 65 213 2.6 6.1 0.00 0.00 0.00 66 1019.2
20260904044031 65 211 2.6 6.1 0.00 0.00 0.00 66 1019.2
20260904044001 65 211 1.7 6.1 0.00 0.00 0.00 66 1019.3
20260904043905 65 219 2.6 6.1 0.00 0.00 0.00 66 1019.3
20260904043801 65 219 1.7 6.1 0.00 0.00 0.00 66 1019.3
20260904043700 65 218 2.6 6.1 0.00 0.00 0.00 66 1019.3
20260904043600 65 216 2.6 6.1 0.00 0.00 0.00 66 1019.3
20260904043500 65 203 2.6 6.1 0.00 0.00 0.00 66 1019.3
20260904043401 65 238 2.6 6.1 0.00 0.00 0.00 66 1019.4
20260904043300 65 238 2.6 6.1 0.00 0.00 0.00 66 1019.4
20260904043200 65 236 2.6 6.1 0.00 0.00 0.00 66 1019.4
20260904043100 65 237 2.6 6.1 0.00 0.00 0.00 66 1019.4
20260904043029 65 227 2.6 6.1 0.00 0.00 0.00 66 1019.4
20260904043001 65 228 2.6 6.1 0.00 0.00 0.00 66 1019.4
20260904042900 65 227 2.6 6.1 0.00 0.00 0.00 66 1019.4
20260904042801 65 226 2.6 6.1 0.00 0.00 0.00 66 1019.4
20260904042700 65 227 1.7 6.1 0.00 0.00 0.00 65 1019.4
20260904042600 65 217 2.6 4.3 0.00 0.00 0.00 66 1019.4
20260904042525 65 224 1.7 4.3 0.00 0.00 0.00 65 1019.4
20260904042500 65 225 1.7 4.3 0.00 0.00 0.00 65 1019.4
20260904042401 65 204 1.7 4.3 0.00 0.00 0.00 66 1019.3
20260904042301 65 202 1.7 4.3 0.00 0.00 0.00 66 1019.4
20260904042200 65 202 1.7 4.3 0.00 0.00 0.00 65 1019.3
20260904042057 65 196 1.7 4.3 0.00 0.00 0.00 65 1019.3
20260904042022 65 196 1.7 4.3 0.00 0.00 0.00 65 1019.3
20260904041957 66 196 1.7 4.3 0.00 0.00 0.00 65 1019.4
20260904041857 66 233 1.7 4.3 0.00 0.00 0.00 65 1019.4
20260904041757 66 227 1.7 6.1 0.00 0.00 0.00 65 1019.4
20260904041655 66 237 1.7 6.1 0.00 0.00 0.00 65 1019.3
20260904041551 66 234 1.7 6.1 0.00 0.00 0.00 65 1019.4
20260904041523 66 230 1.7 6.1 0.00 0.00 0.00 65 1019.4
20260904041449 66 230 1.7 6.1 0.00 0.00 0.00 65 1019.4
20260904041353 66 230 2.6 6.1 0.00 0.00 0.00 65 1019.4
20260904041249 66 230 2.6 6.1 0.00 0.00 0.00 65 1019.4
20260904041149 66 229 2.6 6.1 0.00 0.00 0.00 65 1019.4
20260904041023 66 231 2.6 6.1 0.00 0.00 0.00 65 1019.4
20260904040947 66 257 2.6 6.1 0.00 0.00 0.00 65 1019.4
20260904040844 66 231 2.6 6.1 0.00 0.00 0.00 65 1019.5
20260904040744 66 232 2.6 5.2 0.00 0.00 0.00 65 1019.5
20260904040642 66 207 2.6 5.2 0.00 0.00 0.00 65 1019.5
20260904040523 66 207 2.6 6.1 0.00 0.00 0.00 65 1019.5
20260904040441 66 207 2.6 6.1 0.00 0.00 0.00 65 1019.5
20260904040341 66 200 2.6 6.1 0.00 0.00 0.00 65 1019.5
20260904040243 66 244 2.6 6.1 0.00 0.00 0.00 65 1019.7
20260904040239 66 237 2.6 6.1 0.00 0.00 0.00 65 1019.7
20260904040235 66 232 2.6 6.1 0.00 0.00 0.00 65 1019.7
20260904035931 66 269 2.6 6.1 0.00 0.00 0.00 65 1019.7
20260904035831 66 237 2.6 6.1 0.00 0.00 0.00 64 1019.7
20260904035731 66 236 2.6 6.1 0.00 0.00 0.00 64 1019.7
20260904035631 66 229 2.6 6.1 0.00 0.00 0.00 64 1019.7
20260904035522 66 223 2.6 5.2 0.00 0.00 0.00 64 1019.7
20260904035517 66 213 2.6 6.1 0.00 0.00 0.00 65 1019.7
20260904035508 66 223 2.6 5.2 0.00 0.00 0.00 65 1019.7
20260904035500 66 233 2.6 6.1 0.00 0.00 0.00 65 1019.7
20260904035243 66 234 2.6 6.1 0.00 0.00 0.00 64 1019.7
20260904035239 66 215 2.6 6.1 0.00 0.00 0.00 64 1019.7
20260904035235 66 213 2.6 6.1 0.00 0.00 0.00 65 1019.7
20260904034929 66 206 2.6 6.1 0.00 0.00 0.00 64 1019.7
20260904034829 66 206 2.6 6.1 0.00 0.00 0.00 64 1019.7
20260904034729 66 205 2.6 6.1 0.00 0.00 0.00 65 1019.7
20260904034629 66 217 2.6 6.1 0.00 0.00 0.00 65 1019.7
20260904034529 66 224 2.6 6.1 0.00 0.00 0.00 64 1019.7
20260904034523 66 225 2.6 6.1 0.00 0.00 0.00 64 1019.7
20260904034512 66 220 2.6 6.1 0.00 0.00 0.00 64 1019.8
20260904034508 66 213 2.6 6.1 0.00 0.00 0.00 64 1019.7
20260904034500 66 215 2.6 5.2 0.00 0.00 0.00 64 1019.7
20260904034243 66 217 2.6 5.2 0.00 0.00 0.00 64 1019.7
20260904034239 66 231 2.6 5.2 0.00 0.00 0.00 64 1019.8
20260904034235 66 221 2.6 5.2 0.00 0.00 0.00 64 1019.8
20260904033929 66 220 2.6 6.1 0.00 0.00 0.00 65 1019.8
20260904033829 66 225 2.6 6.1 0.00 0.00 0.00 65 1019.8
20260904033729 66 223 2.6 6.1 0.00 0.00 0.00 64 1019.8
20260904033629 66 223 2.6 6.1 0.00 0.00 0.00 64 1019.8
20260904033529 66 236 2.6 6.1 0.00 0.00 0.00 64 1019.8
20260904033522 66 236 2.6 6.1 0.00 0.00 0.00 64 1019.9
20260904033428 66 209 2.6 6.1 0.00 0.00 0.00 65 1019.9
20260904033329 66 215 2.6 6.1 0.00 0.00 0.00 64 1019.9
20260904033229 66 217 2.6 6.1 0.00 0.00 0.00 64 1019.8
20260904033129 66 232 2.6 6.1 0.00 0.00 0.00 65 1019.9
20260904033029 66 211 2.6 6.1 0.00 0.00 0.00 64 1019.8
20260904033022 66 211 2.6 7.0 0.00 0.00 0.00 64 1019.8
20260904032928 66 253 2.6 7.0 0.00 0.00 0.00 64 1019.8
20260904032828 66 216 2.6 7.0 0.00 0.00 0.00 64 1019.9
20260904032728 66 257 2.6 7.0 0.00 0.00 0.00 64 1019.9
20260904032629 66 241 2.6 7.0 0.00 0.00 0.00 64 1019.9
20260904032523 66 214 2.6 7.0 0.00 0.00 0.00 65 1019.9
20260904032429 66 229 2.6 7.0 0.00 0.00 0.00 65 1019.8
20260904032333 66 221 2.6 7.0 0.00 0.00 0.00 64 1019.9
20260904032229 66 232 2.6 7.0 0.00 0.00 0.00 65 1019.8
20260904032130 66 233 2.6 7.0 0.00 0.00 0.00 64 1019.8
20260904032029 66 229 2.6 7.0 0.00 0.00 0.00 64 1019.8
20260904032022 66 242 2.6 7.0 0.00 0.00 0.00 64 1019.8
20260904031928 66 219 2.6 5.2 0.00 0.00 0.00 65 1019.8
20260904031830 66 209 2.6 5.2 0.00 0.00 0.00 64 1019.8
20260904031747 66 223 3.5 7.0 0.00 0.00 0.00 64 1019.7
20260904031740 66 205 2.6 5.2 0.00 0.00 0.00 65 1019.8
20260904031736 66 267 2.6 5.2 0.00 0.00 0.00 64 1019.8
20260904031732 66 219 2.6 6.1 0.00 0.00 0.00 64 1019.8
20260904031727 66 218 2.6 6.1 0.00 0.00 0.00 64 1019.8
20260904031511 66 223 2.6 7.0 0.00 0.00 0.00 64 1019.8
20260904031507 66 229 2.6 7.0 0.00 0.00 0.00 65 1019.8
20260904031243 66 227 2.6 7.0 0.00 0.00 0.00 64 1019.8
20260904031239 66 217 2.6 7.0 0.00 0.00 0.00 64 1019.8
20260904031235 66 223 3.5 7.0 0.00 0.00 0.00 64 1019.7
20260904030929 66 222 3.5 7.0 0.00 0.00 0.00 64 1019.7
20260904030829 66 217 3.5 7.0 0.00 0.00 0.00 64 1019.7
20260904030729 66 227 3.5 7.0 0.00 0.00 0.00 64 1019.7
20260904030629 66 254 3.5 7.0 0.00 0.00 0.00 65 1019.7
20260904030529 66 219 3.5 7.0 0.00 0.00 0.00 64 1019.7
20260904030523 66 215 3.5 7.0 0.00 0.00 0.00 64 1019.8
20260904030429 66 222 3.5 7.0 0.00 0.00 0.00 64 1019.8
20260904030329 66 209 3.5 7.0 0.00 0.00 0.00 64 1019.8
20260904030229 66 209 3.5 7.0 0.00 0.00 0.00 65 1019.8
20260904030129 66 197 3.5 7.0 0.00 0.00 0.00 65 1019.8
20260904030030 66 229 3.5 7.0 0.00 0.00 0.00 64 1019.8
20260904030018 66 229 3.5 7.0 0.00 0.00 0.00 64 1019.7
20260904025928 66 209 3.5 7.0 0.00 0.00 0.00 64 1019.7
20260904025828 66 210 3.5 7.0 0.00 0.00 0.00 64 1019.8
20260904025729 66 250 3.5 7.0 0.00 0.00 0.00 64 1019.8
20260904025628 66 239 3.5 7.0 0.00 0.00 0.00 65 1019.8
20260904025529 66 238 3.5 7.0 0.00 0.00 0.00 64 1019.8
20260904025511 66 239 3.5 7.0 0.00 0.00 0.00 64 1019.8
20260904025429 66 232 3.5 7.0 0.00 0.00 0.00 65 1019.8
20260904025329 66 240 3.5 7.0 0.00 0.00 0.00 65 1019.8
20260904025228 66 232 3.5 7.0 0.00 0.00 0.00 64 1019.8
20260904025129 66 217 3.5 7.0 0.00 0.00 0.00 65 1019.9
20260904025028 66 218 3.5 7.0 0.00 0.00 0.00 65 1019.9
20260904025011 66 225 3.5 7.0 0.00 0.00 0.00 65 1019.9
20260904024928 66 205 3.5 7.0 0.00 0.00 0.00 64 1019.9
20260904024829 66 213 3.5 7.0 0.00 0.00 0.00 64 1019.9
20260904024729 66 209 3.5 7.0 0.00 0.00 0.00 64 1019.9
20260904024725 66 242 3.5 7.0 0.00 0.00 0.00 65 1019.9
20260904024721 66 227 3.5 7.0 0.00 0.00 0.00 65 1019.9
20260904024428 66 229 3.5 7.0 0.00 0.00 0.00 64 1019.9
20260904024329 66 213 3.5 7.0 0.00 0.00 0.00 64 1019.9
20260904024229 66 207 3.5 7.0 0.00 0.00 0.00 64 1019.9
20260904024129 66 227 3.5 7.0 0.00 0.00 0.00 65 1019.9
20260904024029 66 204 3.5 7.0 0.00 0.00 0.00 64 1019.9
20260904024010 66 203 3.5 7.0 0.00 0.00 0.00 64 1019.9
20260904023929 66 240 3.5 7.0 0.00 0.00 0.00 64 1019.9
20260904023829 66 227 3.5 7.0 0.00 0.00 0.00 64 1019.9
20260904023729 66 218 3.5 7.0 0.00 0.00 0.00 64 1019.9
20260904023629 66 219 3.5 7.0 0.00 0.00 0.00 64 1020.0
20260904023529 66 217 3.5 6.1 0.00 0.00 0.00 64 1020.0
20260904023510 66 219 3.5 6.1 0.00 0.00 0.00 64 1020.0
20260904023428 66 249 3.5 6.1 0.00 0.00 0.00 64 1020.0
20260904023328 66 234 3.5 6.1 0.00 0.00 0.00 64 1020.0
20260904023237 66 205 3.5 7.0 0.00 0.00 0.00 64 1020.0
20260904023232 66 220 3.5 6.1 0.00 0.00 0.00 64 1020.0
20260904023228 66 209 3.5 7.0 0.00 0.00 0.00 64 1020.0
20260904023224 66 209 3.5 7.0 0.00 0.00 0.00 64 1020.0
20260904022928 66 235 3.5 7.0 0.00 0.00 0.00 64 1020.0